U22512 / OE-IZL 7700 Squawk Report (14th of November, 2019)

Aircraft A320 Reg No. OE-IZL Age 3 years old
Model A320 Jet engines 2 First flight 18-12-15
Registered 08-01-18 Rollout 12-15 Delivered 28-01-16
Construction No. 6927 Line No. N/A Series 214(SL)
ADSHEX 4400B7 Airline name easyJet Europe Owner N/A
Airfield based Vienna-Schwechat~Vienna~OE First tracked 2018-03-30 15:48:00

Flight history for OE-IZL

Route Flight No Date Playback
Tegel (TXL) - Dusseldorf (DUS) U25503 2019-12-12 08:39:00
Dusseldorf (DUS) - Tegel (TXL) U25500 2019-12-12 07:44:00
Tegel (TXL) - Dusseldorf (DUS) U25519 2019-12-12 06:00:00
Dusseldorf (DUS) - Tegel (TXL) U25512 2019-12-11 20:29:00
Tegel (TXL) - Dusseldorf (DUS) U25511 2019-12-11 18:39:00
Dusseldorf (DUS) - Tegel (TXL) U25508 2019-12-11 16:49:00
Tegel (TXL) - Dusseldorf (DUS) U25507 2019-12-11 13:04:00
Fiumicino (FCO) - Tegel (TXL) U25702 2019-12-11 12:12:00
Tegel (TXL) - Fiumicino (FCO) U25701 2019-12-11 08:34:00
Arlanda (ARN) - Tegel (TXL) U25888 2019-12-11 06:38:00
Tegel (TXL) - Arlanda (ARN) U25887 2019-12-10 18:25:00
Dusseldorf (DUS) - Tegel (TXL) U25508 2019-12-10 16:57:00
Tegel (TXL) - Dusseldorf (DUS) U25507 2019-12-10 14:17:00
Fiumicino (FCO) - Tegel (TXL) U25702 2019-12-10 11:30:00
Tegel (TXL) - Fiumicino (FCO) U25701 2019-12-10 08:27:00
Barajas (MAD) - Tegel (TXL) U25644 2019-12-10 06:34:00
Tegel (TXL) - Barajas (MAD) U25643 2019-12-09 17:59:00
Zurich (ZRH) - Tegel (TXL) U25864 2019-12-09 14:11:00
Tegel (TXL) - Zurich (ZRH) U25863 2019-12-09 09:50:00
Koln Bonn (CGN) - Tegel (TXL) U25910 2019-12-09 07:50:00
Time Lat Lon Altitude Heading Speed Vertical Rate
2019-11-14 11:12:24 GMT 45.591705 8.733595 1,325 350 132 -704
2019-11-14 11:12:14 GMT 45.586121 8.735136 1,425 350 132 -704
2019-11-14 11:12:09 GMT 45.582779 8.736007 1,500 349 133 -704
2019-11-14 11:11:50 GMT 45.571289 8.739222 1,725 349 135 -704
2019-11-14 11:11:41 GMT 45.566025 8.740696 1,975 350 140 -640
2019-11-14 11:11:37 GMT 45.563606 8.741341 1,875 350 136 -768
2019-11-14 11:11:29 GMT 45.558426 8.742840 1,950 350 138 -640
2019-11-14 11:11:18 GMT 45.551178 8.744774 2,100 350 144 -832
2019-11-14 11:11:10 GMT 45.545872 8.746256 2,350 350 157 -768
2019-11-14 11:11:05 GMT 45.542816 8.747014 2,425 349 165 -640
2019-11-14 11:11:00 GMT 45.539337 8.747995 2,375 349 161 -704
2019-11-14 11:10:56 GMT 45.535770 8.748936 2,425 349 165 -640
2019-11-14 11:10:51 GMT 45.531281 8.750218 2,525 349 170 -896
2019-11-14 11:10:46 GMT 45.528488 8.751003 2,575 349 172 -960
2019-11-14 11:10:40 GMT 45.523453 8.752376 2,675 350 177 -1024
2019-11-14 11:10:36 GMT 45.520454 8.753223 2,725 349 177 -1088
2019-11-14 11:10:29 GMT 45.514435 8.754861 2,875 350 177 -1152
2019-11-14 11:10:23 GMT 45.509792 8.756104 2,975 350 178 -960
2019-11-14 11:10:19 GMT 45.507111 8.756888 3,100 350 179 -832
2019-11-14 11:10:15 GMT 45.503448 8.757869 3,100 350 180 -704
2019-11-14 11:10:08 GMT 45.497681 8.759439 3,150 350 185 -192
2019-11-14 11:10:05 GMT 45.495255 8.760093 3,150 349 187 -128
2019-11-14 11:09:59 GMT 45.490036 8.761531 3,150 350 190 128
2019-11-14 11:09:54 GMT 45.486008 8.762643 3,125 350 194 192
2019-11-14 11:09:49 GMT 45.481155 8.764016 3,125 349 194 0
2019-11-14 11:09:43 GMT 45.476120 8.765455 3,125 350 195 0
2019-11-14 11:09:38 GMT 45.471806 8.766621 3,125 349 195 0
2019-11-14 11:09:34 GMT 45.468201 8.767613 3,125 349 196 0
2019-11-14 11:09:28 GMT 45.462822 8.769167 3,125 349 197 0
2019-11-14 11:09:24 GMT 45.458958 8.770171 3,125 350 197 0
2019-11-14 11:09:17 GMT 45.453278 8.771712 3,125 351 196 64
2019-11-14 11:09:07 GMT 45.443829 8.773923 3,125 358 195 0
2019-11-14 11:08:58 GMT 45.434521 8.774057 3,125 11 189 0
2019-11-14 11:08:50 GMT 45.428841 8.771645 3,125 33 184 -64
2019-11-14 11:08:47 GMT 45.426544 8.769836 3,125 35 184 -64
2019-11-14 11:08:37 GMT 45.419586 8.762839 3,125 35 187 0
2019-11-14 11:08:26 GMT 45.412262 8.755384 3,125 35 197 0
2019-11-14 11:08:17 GMT 45.404354 8.747261 3,125 35 205 -64
2019-11-14 11:08:13 GMT 45.401653 8.744514 3,125 35 207 -64
2019-11-14 11:08:06 GMT 45.396515 8.739297 3,150 35 211 -128
2019-11-14 11:07:56 GMT 45.388245 8.730915 3,175 35 217 -256
2019-11-14 11:07:46 GMT 45.379852 8.722294 3,225 36 225 -256
2019-11-14 11:07:35 GMT 45.371113 8.713230 3,250 36 232 -320
2019-11-14 11:07:25 GMT 45.361908 8.703657 3,300 36 235 -128
2019-11-14 11:07:17 GMT 45.355270 8.696660 3,325 36 236 -128
2019-11-14 11:07:14 GMT 45.352982 8.694305 3,350 68 249 -640
2019-11-14 11:07:05 GMT 45.343975 8.684759 3,350 37 238 -64
2019-11-14 11:06:54 GMT 45.334991 8.674711 3,375 44 236 -128
2019-11-14 11:06:46 GMT 45.328903 8.665662 3,400 60 233 -384
2019-11-14 11:06:36 GMT 45.323025 8.648786 3,475 68 235 -256
2019-11-14 11:06:24 GMT 45.318832 8.634011 3,525 68 239 -320
2019-11-14 11:06:13 GMT 45.314529 8.618840 3,575 68 245 -448
2019-11-14 11:06:03 GMT 45.310181 8.603603 3,675 68 251 -704
2019-11-14 11:05:52 GMT 45.305569 8.587490 3,850 67 256 -1280
2019-11-14 11:05:42 GMT 45.301052 8.571949 4,050 67 257 -1536
2019-11-14 11:05:32 GMT 45.296490 8.555938 4,450 68 252 -2560
2019-11-14 11:05:22 GMT 45.292023 8.540128 4,875 68 251 -2496
2019-11-14 11:05:18 GMT 45.290497 8.534546 5,025 68 251 -2432
2019-11-14 11:05:12 GMT 45.287552 8.523917 5,325 68 251 -2368
2019-11-14 11:05:02 GMT 45.283920 8.510720 5,650 68 251 -2240
2019-11-14 11:04:59 GMT 45.282074 8.504072 5,800 68 253 -1792
2019-11-14 11:04:52 GMT 45.279648 8.495113 6,050 68 257 -1536
2019-11-14 11:04:49 GMT 45.278091 8.489489 6,050 68 258 -1792
2019-11-14 11:04:40 GMT 45.274567 8.476421 6,250 69 262 -1856
2019-11-14 11:04:29 GMT 45.269817 8.458602 6,550 69 266 -1856
2019-11-14 11:04:23 GMT 45.266602 8.446328 6,725 69 273 -1600
2019-11-14 11:04:18 GMT 45.262650 8.431002 7,075 69 278 -2432
2019-11-14 11:04:09 GMT 45.260513 8.422721 7,275 69 278 -2432
2019-11-14 11:04:00 GMT 45.256302 8.406830 7,650 69 279 -2368
2019-11-14 11:03:56 GMT 45.255154 8.402598 7,750 68 279 -2432
2019-11-14 11:03:53 GMT 45.253525 8.396636 7,875 68 281 -1920
2019-11-14 11:03:48 GMT 45.251175 8.388127 8,025 68 283 -1792
2019-11-14 11:03:40 GMT 45.247330 8.374459 8,275 67 288 -1728
2019-11-14 11:03:37 GMT 45.246094 8.370143 8,350 67 290 -1536
2019-11-14 11:03:28 GMT 45.240646 8.351310 8,575 67 300 -1152
2019-11-14 11:03:22 GMT 45.237835 8.341705 8,675 68 308 -1280
2019-11-14 11:03:17 GMT 45.235416 8.333130 8,750 68 310 -1216
2019-11-14 11:03:08 GMT 45.230247 8.315110 9,025 67 324 -1600
2019-11-14 11:02:59 GMT 45.225266 8.297759 9,200 67 332 -1600
2019-11-14 11:02:56 GMT 45.223755 8.292585 9,250 67 337 -1472
2019-11-14 11:02:51 GMT 45.220703 8.282084 9,400 67 344 -1728
2019-11-14 11:02:47 GMT 45.217941 8.272574 9,525 67 350 -1984
2019-11-14 11:02:37 GMT 45.211487 8.250667 10,050 67 354 -4160
2019-11-14 11:02:31 GMT 45.207996 8.238808 10,425 67 356 -4096
2019-11-14 11:02:26 GMT 45.204849 8.228367 10,750 66 356 -4224
2019-11-14 11:02:20 GMT 45.200874 8.215161 11,225 66 355 -4736
2019-11-14 11:02:15 GMT 45.197937 8.205479 11,575 66 355 -4288
2019-11-14 11:02:11 GMT 45.194824 8.195147 11,875 66 358 -3328
2019-11-14 11:02:06 GMT 45.191704 8.184948 12,125 66 360 -3520
2019-11-14 11:01:55 GMT 45.184719 8.161971 12,800 66 360 -4224
2019-11-14 11:01:51 GMT 45.182281 8.154013 13,075 66 360 -4288
2019-11-14 11:01:46 GMT 45.178806 8.142678 13,525 66 361 -3584
2019-11-14 11:01:43 GMT 45.176331 8.134853 13,625 65 363 -3008
2019-11-14 11:01:40 GMT 45.174664 8.129481 14,550 65 367 -2240
2019-11-14 11:01:36 GMT 45.169556 8.113403 13,925 65 371 -2112
2019-11-14 11:01:33 GMT 45.167400 8.106570 14,100 65 376 -1856
2019-11-14 11:01:25 GMT 45.163971 8.095878 14,250 65 382 -2432
2019-11-14 11:01:22 GMT 45.161865 8.089338 14,400 65 382 -3072
2019-11-14 11:01:19 GMT 45.159721 8.082588 15,500 65 382 -3776
2019-11-14 11:01:13 GMT 45.154461 8.065975 15,050 66 380 -4224
2019-11-14 11:01:09 GMT 45.152618 8.060172 15,725 67 381 -2688
2019-11-14 11:01:02 GMT 45.147446 8.043365 15,725 66 378 -3968
2019-11-14 11:00:59 GMT 45.145111 8.035583 15,900 67 381 -2816
2019-11-14 11:00:52 GMT 45.140865 8.020555 16,100 69 388 -1152
2019-11-14 11:00:47 GMT 45.137695 8.008118 16,175 71 391 -1024
2019-11-14 11:00:41 GMT 45.132626 7.983309 16,450 75 393 -1792
2019-11-14 11:00:32 GMT 45.130600 7.970646 16,600 77 395 -1856
2019-11-14 11:00:28 GMT 45.129135 7.961033 16,725 77 396 -1984
2019-11-14 11:00:22 GMT 45.126808 7.945728 16,925 77 398 -2048
2019-11-14 11:00:18 GMT 45.125366 7.936014 17,050 78 399 -1920
2019-11-14 11:00:12 GMT 45.122818 7.919312 17,250 77 401 -1792
2019-11-14 11:00:07 GMT 45.121262 7.908718 17,350 77 403 -1792
2019-11-14 11:00:04 GMT 45.120117 7.901263 17,475 77 403 -1984
2019-11-14 11:00:00 GMT 45.118378 7.889884 17,800 77 405 -2112
2019-11-14 10:59:57 GMT 45.117279 7.882625 17,725 77 405 -2112
2019-11-14 10:59:51 GMT 45.114578 7.864707 17,900 77 408 -1856
2019-11-14 10:59:46 GMT 45.112843 7.853617 18,050 77 411 -1536
2019-11-14 10:59:41 GMT 45.110641 7.839268 18,175 77 414 -1536
2019-11-14 10:59:36 GMT 45.108837 7.827491 18,300 77 416 -1728
2019-11-14 10:59:31 GMT 45.106510 7.812619 18,450 77 418 -2112
2019-11-14 10:59:26 GMT 45.104691 7.801012 18,800 77 419 -2560
2019-11-14 10:59:20 GMT 45.102043 7.783479 18,925 77 419 -2560
2019-11-14 10:59:16 GMT 45.100552 7.773832 19,100 77 420 -2496
2019-11-14 10:59:11 GMT 45.098316 7.759362 19,325 77 420 -2752
2019-11-14 10:59:04 GMT 45.094173 7.732030 21,125 77 421 -1024
2019-11-14 10:59:00 GMT 45.094173 7.732030 19,825 77 417 -3136
2019-11-14 10:58:55 GMT 45.092148 7.718811 19,975 77 416 -2816
2019-11-14 10:58:51 GMT 45.090080 7.705435 20,275 77 415 -1728
2019-11-14 10:58:48 GMT 45.087936 7.691368 20,400 77 416 -1024
2019-11-14 10:58:37 GMT 45.084538 7.669328 20,525 77 416 -960
2019-11-14 10:58:34 GMT 45.083313 7.661460 20,575 77 417 -960
2019-11-14 10:58:30 GMT 45.081619 7.650539 20,650 77 418 -960
2019-11-14 10:58:27 GMT 45.080349 7.642465 20,700 77 418 -960
2019-11-14 10:58:19 GMT 45.077137 7.621631 20,825 77 419 -960
2019-11-14 10:58:14 GMT 45.075027 7.608098 20,900 77 419 -1024
2019-11-14 10:58:04 GMT 45.070724 7.580501 21,075 77 421 -1024
2019-11-14 10:58:00 GMT 45.069221 7.570652 21,125 77 422 -1024
2019-11-14 10:57:53 GMT 45.066196 7.551024 21,625 77 422 -1024
2019-11-14 10:57:49 GMT 45.064800 7.542114 21,400 77 422 -1024
2019-11-14 10:57:46 GMT 45.063591 7.534276 21,375 77 422 -1024
2019-11-14 10:57:43 GMT 45.062145 7.524831 21,425 77 422 -1024
2019-11-14 10:57:39 GMT 45.060379 7.513577 21,500 77 421 -1024
2019-11-14 10:57:36 GMT 45.059074 7.505203 21,550 77 421 -1024
2019-11-14 10:57:32 GMT 45.057678 7.496207 21,600 77 421 -1024
2019-11-14 10:57:29 GMT 45.056213 7.486790 21,675 77 421 -960
2019-11-14 10:57:22 GMT 45.053284 7.467957 21,775 77 422 -960
2019-11-14 10:57:15 GMT 45.050400 7.449384 21,875 77 422 -896
2019-11-14 10:57:12 GMT 45.047623 7.431447 21,975 77 422 -832
2019-11-14 10:57:08 GMT 45.047623 7.431447 22,025 77 422 -832
2019-11-14 10:57:02 GMT 45.044861 7.413810 22,075 77 422 -896
2019-11-14 10:56:59 GMT 45.043293 7.403981 22,275 77 426 -1024
2019-11-14 10:56:55 GMT 45.042068 7.396022 22,175 77 425 -896
2019-11-14 10:56:51 GMT 45.040405 7.385358 22,200 77 425 -960
2019-11-14 10:56:47 GMT 45.038452 7.373003 22,300 77 426 -960
2019-11-14 10:56:43 GMT 45.036758 7.362148 22,375 77 428 -1024
2019-11-14 10:56:40 GMT 45.035843 7.356458 22,400 77 428 -1024
2019-11-14 10:56:37 GMT 45.034496 7.347844 22,450 77 429 -1024
2019-11-14 10:56:33 GMT 45.030304 7.321145 22,575 77 431 -1024
2019-11-14 10:56:28 GMT 45.030304 7.321145 22,650 77 431 -1024
2019-11-14 10:56:24 GMT 45.028770 7.311401 22,650 77 431 -1024
2019-11-14 10:56:20 GMT 45.027000 7.300147 22,925 77 434 -576
2019-11-14 10:56:17 GMT 45.025452 7.290410 22,800 77 433 -1024
2019-11-14 10:56:13 GMT 45.023849 7.280143 22,875 77 434 -896
2019-11-14 10:56:07 GMT 45.021179 7.263169 22,950 77 434 -576
2019-11-14 10:56:00 GMT 45.018219 7.244241 23,000 77 434 0
2019-11-14 10:55:56 GMT 45.016708 7.234562 23,000 77 434 0
2019-11-14 10:55:52 GMT 45.014942 7.223310 23,000 77 434 0
2019-11-14 10:55:47 GMT 45.012848 7.209778 23,000 77 434 -64
2019-11-14 10:55:43 GMT 45.010567 7.195375 23,000 77 433 -64
2019-11-14 10:55:37 GMT 45.007866 7.178025 23,025 77 432 -128
2019-11-14 10:55:32 GMT 45.006226 7.167729 23,025 77 432 -128
2019-11-14 10:55:29 GMT 45.004887 7.159335 23,050 77 432 -128
2019-11-14 10:55:26 GMT 45.003120 7.148348 23,050 77 432 -128
2019-11-14 10:55:21 GMT 45.001350 7.137295 23,050 77 434 -448
2019-11-14 10:55:17 GMT 44.999542 7.126072 23,075 77 436 -512
2019-11-14 10:55:12 GMT 44.997208 7.111236 23,150 77 437 -1024
2019-11-14 10:55:07 GMT 44.995468 7.099980 23,300 81 437 -1472
2019-11-14 10:55:04 GMT 44.994186 7.090105 23,300 81 437 -1472
2019-11-14 10:55:00 GMT 44.993111 7.078679 23,400 83 436 -1472
2019-11-14 10:54:56 GMT 44.992367 7.067358 23,500 87 434 -1472
2019-11-14 10:54:53 GMT 44.992035 7.058193 23,575 88 434 -1536
2019-11-14 10:54:50 GMT 44.991989 7.049953 23,675 91 433 -1536
2019-11-14 10:54:47 GMT 44.992134 7.038284 23,775 93 430 -1600
2019-11-14 10:54:41 GMT 44.992924 7.023211 23,925 96 427 -1600
2019-11-14 10:54:36 GMT 44.993809 7.012091 24,025 97 426 -1472
2019-11-14 10:54:30 GMT 44.995296 6.996147 24,175 97 425 -1280
2019-11-14 10:54:26 GMT 44.997673 6.969485 24,325 97 424 -896
2019-11-14 10:54:21 GMT 44.997673 6.969485 24,350 97 425 -768
2019-11-14 10:54:16 GMT 44.998810 6.957027 24,400 97 425 -768
2019-11-14 10:54:11 GMT 45.000046 6.942967 24,475 97 426 -768
2019-11-14 10:54:07 GMT 45.000961 6.932177 24,525 96 428 -896
2019-11-14 10:54:03 GMT 45.001923 6.921387 24,575 97 432 -1024
2019-11-14 10:53:57 GMT 45.003353 6.904773 24,650 96 436 -1024
2019-11-14 10:53:53 GMT 45.004421 6.892380 24,725 97 447 -768
2019-11-14 10:53:50 GMT 45.005081 6.884896 24,775 97 441 -1024
2019-11-14 10:53:44 GMT 45.007587 6.856608 24,925 97 447 -768
2019-11-14 10:53:41 GMT 45.007587 6.856608 24,925 97 448 -640
2019-11-14 10:53:35 GMT 45.009064 6.839905 25,000 97 449 -256
2019-11-14 10:53:27 GMT 45.010941 6.818390 25,000 97 450 64
2019-11-14 10:53:23 GMT 45.012150 6.804556 25,000 97 450 0
2019-11-14 10:53:17 GMT 45.013550 6.788635 25,000 96 451 -64
2019-11-14 10:53:14 GMT 45.014282 6.780199 25,000 96 451 0
2019-11-14 10:53:11 GMT 45.015224 6.769521 25,000 96 452 0
2019-11-14 10:53:07 GMT 45.016106 6.759338 25,000 96 452 0
2019-11-14 10:53:01 GMT 45.017830 6.739375 25,000 96 453 128
2019-11-14 10:52:56 GMT 45.018852 6.727384 25,000 96 454 -64
2019-11-14 10:52:52 GMT 45.021599 6.695899 25,000 96 455 0
2019-11-14 10:52:45 GMT 45.021599 6.695899 25,000 96 455 0
2019-11-14 10:52:42 GMT 45.022484 6.685583 25,000 96 455 0
2019-11-14 10:52:36 GMT 45.023987 6.668113 25,000 96 455 -64
2019-11-14 10:52:31 GMT 45.025139 6.654700 25,000 96 454 0
2019-11-14 10:52:26 GMT 45.026550 6.638685 25,000 96 454 64
2019-11-14 10:52:22 GMT 45.027512 6.627368 25,000 96 454 64
2019-11-14 10:52:18 GMT 45.028675 6.613837 25,000 96 454 64
2019-11-14 10:52:15 GMT 45.029343 6.605726 25,000 96 454 0
2019-11-14 10:52:11 GMT 45.030304 6.594543 25,000 96 454 0
2019-11-14 10:52:06 GMT 45.031631 6.579503 25,000 96 454 0
2019-11-14 10:52:02 GMT 45.032684 6.567208 25,000 96 454 64
2019-11-14 10:51:56 GMT 45.034149 6.550402 25,000 96 453 -64
2019-11-14 10:51:48 GMT 45.036125 6.527420 25,000 96 451 0
2019-11-14 10:51:45 GMT 45.036896 6.518489 25,000 96 451 0
2019-11-14 10:51:42 GMT 45.037941 6.506385 25,000 96 450 0
2019-11-14 10:51:36 GMT 45.039196 6.491781 25,000 96 449 0
2019-11-14 10:51:32 GMT 45.040283 6.479187 25,000 96 449 0
2019-11-14 10:51:29 GMT 45.041016 6.470751 25,000 96 449 0
2019-11-14 10:51:25 GMT 45.041943 6.459827 25,000 96 449 64
2019-11-14 10:51:20 GMT 45.043758 6.437720 25,000 96 449 0
2019-11-14 10:51:14 GMT 45.044540 6.428833 25,000 96 449 -64
2019-11-14 10:51:10 GMT 45.045639 6.415689 25,000 96 450 -64
2019-11-14 10:51:07 GMT 45.046227 6.408580 25,000 96 450 -64
2019-11-14 10:51:04 GMT 45.046967 6.399667 25,000 96 449 0
2019-11-14 10:50:59 GMT 45.049160 6.373678 25,000 96 448 0
2019-11-14 10:50:55 GMT 45.049160 6.373678 25,000 96 444 0
2019-11-14 10:50:48 GMT 45.050880 6.353380 25,000 96 446 -64
2019-11-14 10:50:45 GMT 45.051624 6.344404 25,000 96 444 0
2019-11-14 10:50:39 GMT 45.053192 6.325771 25,000 96 444 0
2019-11-14 10:50:35 GMT 45.054092 6.314995 25,000 96 444 128
2019-11-14 10:50:31 GMT 45.055351 6.300324 25,000 96 444 64
2019-11-14 10:50:28 GMT 45.056900 6.282087 25,000 96 444 0
2019-11-14 10:50:24 GMT 45.056900 6.282087 25,000 96 445 0
2019-11-14 10:50:20 GMT 45.058609 6.261805 25,000 96 445 -64
2019-11-14 10:50:17 GMT 45.058609 6.261805 25,000 96 445 0
2019-11-14 10:50:14 GMT 45.059448 6.252293 25,000 96 445 0
2019-11-14 10:50:09 GMT 45.060425 6.240561 25,000 96 446 0
2019-11-14 10:50:06 GMT 45.061123 6.232665 25,000 96 446 64
2019-11-14 10:50:03 GMT 45.062073 6.221531 25,000 96 446 0
2019-11-14 10:49:57 GMT 45.063309 6.206818 25,000 97 446 -64
2019-11-14 10:49:54 GMT 45.064224 6.196420 25,000 97 446 0
2019-11-14 10:49:50 GMT 45.065311 6.184097 25,000 97 447 0
2019-11-14 10:49:47 GMT 45.066105 6.175455 25,000 97 447 -64
2019-11-14 10:49:44 GMT 45.066895 6.166747 25,000 97 447 -64
2019-11-14 10:49:40 GMT 45.067921 6.155425 25,000 97 448 0
2019-11-14 10:49:34 GMT 45.069550 6.137740 25,000 97 448 0
2019-11-14 10:49:30 GMT 45.070713 6.124945 25,000 97 449 64
2019-11-14 10:49:27 GMT 45.071598 6.114829 25,000 96 450 0
2019-11-14 10:49:24 GMT 45.072098 6.109118 25,000 96 451 64
2019-11-14 10:49:19 GMT 45.073227 6.095201 25,000 96 451 64
2019-11-14 10:49:15 GMT 45.074112 6.085019 25,000 96 451 0
2019-11-14 10:49:12 GMT 45.075134 6.072090 25,000 94 455 64
2019-11-14 10:49:09 GMT 45.075531 6.065761 24,975 89 460 0
2019-11-14 10:49:06 GMT 45.075974 6.056682 24,975 91 459 64
2019-11-14 10:49:03 GMT 45.076206 6.049246 24,975 89 461 64
2019-11-14 10:48:58 GMT 45.076218 6.034372 24,975 86 462 0
2019-11-14 10:48:55 GMT 45.075943 6.023516 24,975 86 462 0
2019-11-14 10:48:52 GMT 45.075531 6.014491 24,975 85 463 -64
2019-11-14 10:48:49 GMT 45.074947 6.004430 25,000 84 464 -64
2019-11-14 10:48:45 GMT 45.074066 5.993846 25,000 81 464 0
2019-11-14 10:48:42 GMT 45.073196 5.984998 25,000 84 461 -64
2019-11-14 10:48:38 GMT 45.071922 5.972208 25,000 82 463 0
2019-11-14 10:48:35 GMT 45.070805 5.959346 25,000 85 460 -64
2019-11-14 10:48:32 GMT 45.070541 5.954721 25,000 85 460 -64
2019-11-14 10:48:28 GMT 45.069901 5.928432 25,050 92 453 -512
2019-11-14 10:48:23 GMT 45.069901 5.928432 25,075 92 453 -640
2019-11-14 10:48:20 GMT 45.070107 5.918549 25,075 92 453 -640
2019-11-14 10:48:16 GMT 45.070854 5.905017 25,150 95 450 -896
2019-11-14 10:48:13 GMT 45.071365 5.897715 25,225 95 450 -832
2019-11-14 10:48:10 GMT 45.072018 5.888940 25,225 95 450 -896
2019-11-14 10:48:07 GMT 45.072575 5.880767 25,275 95 450 -896
2019-11-14 10:48:03 GMT 45.073380 5.869184 25,375 94 451 -1088
2019-11-14 10:48:00 GMT 45.073975 5.859571 25,400 94 452 -1216
2019-11-14 10:47:57 GMT 45.074432 5.852509 25,400 94 452 -1216
2019-11-14 10:47:54 GMT 45.074890 5.843680 25,500 93 454 -1536
2019-11-14 10:47:50 GMT 45.075554 5.829922 25,625 93 455 -1536
2019-11-14 10:47:47 GMT 45.075878 5.822486 25,700 93 456 -1536
2019-11-14 10:47:44 GMT 45.076206 5.813844 25,750 93 456 -1536
2019-11-14 10:47:40 GMT 45.076859 5.798973 25,900 93 457 -1408
2019-11-14 10:47:37 GMT 45.077183 5.791537 25,950 93 458 -1472
2019-11-14 10:47:32 GMT 45.077927 5.774186 26,075 93 458 -1408
2019-11-14 10:47:27 GMT 45.079102 5.747158 26,250 93 458 -1344
2019-11-14 10:47:22 GMT 45.079102 5.747158 26,300 93 458 -1344
2019-11-14 10:47:19 GMT 45.079514 5.737871 26,350 93 459 -1408
2019-11-14 10:47:16 GMT 45.079792 5.731112 26,400 93 459 -1408
2019-11-14 10:47:12 GMT 45.080978 5.703408 26,550 93 460 -1408
2019-11-14 10:47:08 GMT 45.080978 5.703408 26,625 93 460 -1472
2019-11-14 10:47:04 GMT 45.081436 5.692945 26,800 93 460 -1472
2019-11-14 10:47:00 GMT 45.081886 5.681941 26,800 93 461 -1344
2019-11-14 10:46:57 GMT 45.082718 5.662275 26,900 93 462 -1408
2019-11-14 10:46:54 GMT 45.082718 5.662275 26,950 93 462 -1408
2019-11-14 10:46:51 GMT 45.083176 5.651681 27,050 93 463 -1344
2019-11-14 10:46:46 GMT 45.083725 5.638144 27,100 93 463 -1408
2019-11-14 10:46:43 GMT 45.084045 5.630559 27,200 93 464 -1408
2019-11-14 10:46:40 GMT 45.084446 5.620110 27,275 93 464 -1472
2019-11-14 10:46:37 GMT 45.084820 5.611334 27,325 93 465 -1472
2019-11-14 10:46:33 GMT 45.085331 5.598874 27,525 93 466 -1472
2019-11-14 10:46:30 GMT 45.085648 5.590799 27,525 93 466 -1472
2019-11-14 10:46:27 GMT 45.086121 5.580318 27,600 93 467 -1472
2019-11-14 10:46:23 GMT 45.086540 5.570001 27,725 93 468 -1472
2019-11-14 10:46:20 GMT 45.086975 5.558559 28,050 93 470 -1536
2019-11-14 10:46:17 GMT 45.087334 5.550708 27,800 93 469 -1472
2019-11-14 10:46:13 GMT 45.087799 5.538784 27,925 93 469 -1536
2019-11-14 10:46:10 GMT 45.088165 5.529785 28,050 93 470 -1536
2019-11-14 10:46:07 GMT 45.088623 5.518406 28,100 93 470 -1536
2019-11-14 10:46:03 GMT 45.089054 5.508170 28,200 93 470 -1536
2019-11-14 10:45:58 GMT 45.089722 5.491791 28,375 93 470 -1536
2019-11-14 10:45:55 GMT 45.090042 5.482570 28,400 93 470 -1536
2019-11-14 10:45:52 GMT 45.090317 5.475834 28,450 93 470 -1536
2019-11-14 10:45:48 GMT 45.091003 5.458897 28,600 93 471 -1536
2019-11-14 10:45:42 GMT 45.091507 5.445099 28,725 93 471 -1472
2019-11-14 10:45:39 GMT 45.092033 5.432337 28,800 93 471 -1472
2019-11-14 10:45:35 GMT 45.092361 5.423763 28,875 93 471 -1472
2019-11-14 10:45:32 GMT 45.093246 5.402396 29,050 93 471 -1408
2019-11-14 10:45:29 GMT 45.093616 5.393617 29,075 93 471 -1344
2019-11-14 10:45:26 GMT 45.093616 5.393617 29,125 93 470 -1408
2019-11-14 10:45:22 GMT 45.094574 5.370156 29,250 93 470 -1344
2019-11-14 10:45:18 GMT 45.094574 5.370156 29,275 93 470 -1344
2019-11-14 10:45:15 GMT 45.094921 5.361127 29,375 93 470 -1344
2019-11-14 10:45:12 GMT 45.095291 5.351883 29,375 92 470 -1408
2019-11-14 10:45:09 GMT 45.095627 5.342887 29,475 92 472 -1472
2019-11-14 10:45:06 GMT 45.095947 5.330854 29,575 91 475 -1472
2019-11-14 10:45:02 GMT 45.096176 5.320653 29,700 90 476 -1472
2019-11-14 10:44:58 GMT 45.096363 5.307133 29,750 90 477 -1472
2019-11-14 10:44:55 GMT 45.096363 5.299028 29,800 89 478 -1344
2019-11-14 10:44:52 GMT 45.096363 5.289046 29,900 89 479 -1088
2019-11-14 10:44:49 GMT 45.096272 5.279333 29,950 88 479 -832
2019-11-14 10:44:46 GMT 45.096130 5.270429 30,000 87 479 -256
2019-11-14 10:44:42 GMT 45.095856 5.257939 30,000 87 479 -64
2019-11-14 10:44:39 GMT 45.095535 5.248195 30,000 86 479 64
2019-11-14 10:44:36 GMT 45.095169 5.238844 30,000 85 480 64
2019-11-14 10:44:33 GMT 45.094757 5.230081 30,000 86 480 0
2019-11-14 10:44:29 GMT 45.094208 5.219160 30,000 84 482 0
2019-11-14 10:44:26 GMT 45.093292 5.204907 30,000 84 482 -64
2019-11-14 10:44:23 GMT 45.092827 5.198342 30,000 83 481 -64
2019-11-14 10:44:19 GMT 45.091782 5.184370 30,000 83 482 64
2019-11-14 10:44:15 GMT 45.090820 5.173187 30,000 82 483 0
2019-11-14 10:44:11 GMT 45.089615 5.160493 29,975 80 486 -64
2019-11-14 10:44:08 GMT 45.088760 5.152522 29,975 80 486 0
2019-11-14 10:44:05 GMT 45.087616 5.141929 30,000 79 486 0
2019-11-14 10:44:02 GMT 45.084915 5.119367 30,000 79 486 0
2019-11-14 10:43:58 GMT 45.084915 5.119367 30,000 79 485 0
2019-11-14 10:43:55 GMT 45.083725 5.110670 30,000 77 486 64
2019-11-14 10:43:50 GMT 45.081841 5.097120 30,000 77 485 0
2019-11-14 10:43:47 GMT 45.080441 5.087809 30,000 77 486 0
2019-11-14 10:43:44 GMT 45.078812 5.077626 30,000 76 487 -64
2019-11-14 10:43:41 GMT 45.077042 5.066921 30,000 75 488 64
2019-11-14 10:43:38 GMT 45.075134 5.055989 30,000 75 488 64
2019-11-14 10:43:33 GMT 45.073105 5.045079 30,000 74 488 0
2019-11-14 10:43:30 GMT 45.071320 5.035466 30,000 74 490 64
2019-11-14 10:43:27 GMT 45.068989 5.023967 30,000 73 491 0
2019-11-14 10:43:24 GMT 45.063683 4.999382 30,000 72 492 0
2019-11-14 10:43:19 GMT 45.063683 4.999382 30,000 72 493 0
2019-11-14 10:43:14 GMT 45.060242 4.984523 30,000 71 494 0
2019-11-14 10:43:10 GMT 45.057632 4.973537 30,000 71 494 64
2019-11-14 10:43:07 GMT 45.055069 4.962812 30,000 71 494 0
2019-11-14 10:43:04 GMT 45.052872 4.953657 30,000 71 494 0
2019-11-14 10:43:00 GMT 45.050400 4.943259 30,000 71 495 0
2019-11-14 10:42:56 GMT 45.045135 4.921221 30,000 71 497 -128
2019-11-14 10:42:50 GMT 45.039871 4.899445 30,000 71 496 -64
2019-11-14 10:42:47 GMT 45.039871 4.899445 30,000 71 496 -64
2019-11-14 10:42:44 GMT 45.037613 4.890122 30,000 71 497 -128
2019-11-14 10:42:39 GMT 45.034698 4.877995 30,125 71 497 -192
2019-11-14 10:42:36 GMT 45.032135 4.867532 30,050 71 499 -192
2019-11-14 10:42:33 GMT 45.030212 4.859554 30,050 71 499 -192
2019-11-14 10:42:29 GMT 45.027557 4.848764 30,050 71 499 -128
2019-11-14 10:42:26 GMT 45.022392 4.827352 30,050 71 501 -192
2019-11-14 10:42:23 GMT 45.022392 4.827352 30,525 71 508 -1472
2019-11-14 10:42:17 GMT 45.017899 4.808873 30,125 71 505 -960
2019-11-14 10:42:13 GMT 45.015518 4.798933 30,150 71 506 -1024
2019-11-14 10:42:10 GMT 45.012569 4.786891 30,825 71 508 -1472
2019-11-14 10:42:04 GMT 45.007774 4.767196 30,400 71 508 -1472
2019-11-14 10:42:00 GMT 45.004749 4.754601 30,500 71 508 -1472
2019-11-14 10:41:57 GMT 45.002934 4.747099 30,625 71 508 -1408
2019-11-14 10:41:53 GMT 44.996796 4.721898 30,775 71 507 -1472
2019-11-14 10:41:49 GMT 44.996796 4.721898 30,775 71 507 -1408
2019-11-14 10:41:45 GMT 44.993809 4.709517 30,825 71 507 -1536
2019-11-14 10:41:42 GMT 44.991619 4.700474 30,875 71 507 -1536
2019-11-14 10:41:39 GMT 44.989388 4.691095 31,025 71 507 -1472
2019-11-14 10:41:35 GMT 44.986126 4.677697 31,075 71 506 -1472
2019-11-14 10:41:32 GMT 44.983986 4.668921 31,250 71 506 -1472
2019-11-14 10:41:29 GMT 44.981659 4.659275 31,325 71 505 -1408
2019-11-14 10:41:26 GMT 44.978485 4.646301 31,325 71 505 -1472
2019-11-14 10:41:23 GMT 44.976631 4.638709 31,400 71 505 -1408
2019-11-14 10:41:20 GMT 44.974869 4.631391 31,450 71 504 -1408
2019-11-14 10:41:17 GMT 44.970299 4.612583 31,550 71 504 -1472
2019-11-14 10:41:11 GMT 44.967773 4.602160 31,675 71 503 -1472
2019-11-14 10:41:08 GMT 44.965576 4.593201 31,750 71 502 -1408
2019-11-14 10:41:05 GMT 44.962479 4.580361 31,825 70 501 -1344
2019-11-14 10:41:02 GMT 44.960663 4.572925 32,025 71 501 -1408
2019-11-14 10:40:55 GMT 44.956100 4.554291 32,050 70 501 -1472
2019-11-14 10:40:52 GMT 44.954239 4.546732 32,100 70 501 -1472
2019-11-14 10:40:46 GMT 44.949188 4.526171 32,250 70 500 -1344
2019-11-14 10:40:42 GMT 44.946213 4.514204 32,325 70 500 -1344
2019-11-14 10:40:38 GMT 44.942974 4.501112 32,425 70 503 -1472
2019-11-14 10:40:34 GMT 44.939896 4.488634 32,525 70 501 -1408
2019-11-14 10:40:31 GMT 44.937618 4.479541 32,600 70 502 -1472
2019-11-14 10:40:27 GMT 44.934540 4.466989 32,775 70 503 -1472
2019-11-14 10:40:24 GMT 44.931431 4.454487 32,800 70 504 -1472
2019-11-14 10:40:21 GMT 44.929893 4.448324 32,825 70 505 -1472
2019-11-14 10:40:17 GMT 44.926529 4.434814 32,925 70 507 -1536
2019-11-14 10:40:13 GMT 44.924259 4.425682 33,000 70 506 -1536
2019-11-14 10:40:10 GMT 44.921173 4.413038 33,125 70 507 -1472
2019-11-14 10:40:07 GMT 44.919525 4.406499 33,175 70 507 -1472
2019-11-14 10:40:01 GMT 44.913784 4.383277 33,350 70 507 -1408
2019-11-14 10:39:57 GMT 44.912109 4.376444 33,400 70 506 -1408
2019-11-14 10:39:54 GMT 44.909782 4.367132 33,475 70 506 -1408
2019-11-14 10:39:50 GMT 44.906338 4.353065 33,575 70 506 -1408
2019-11-14 10:39:47 GMT 44.903313 4.340671 33,650 70 505 -1408
2019-11-14 10:39:44 GMT 44.902145 4.335982 33,700 70 506 -1408
2019-11-14 10:39:40 GMT 44.898331 4.320441 33,850 69 506 -1344
2019-11-14 10:39:37 GMT 44.896408 4.312853 33,900 69 506 -1344
2019-11-14 10:39:33 GMT 44.892326 4.297932 34,025 67 507 -1408
2019-11-14 10:39:27 GMT 44.887390 4.281725 34,150 64 508 -1408
2019-11-14 10:39:24 GMT 44.885063 4.274686 34,200 63 508 -1472
2019-11-14 10:39:21 GMT 44.881851 4.265638 35,275 52 521 -1472
2019-11-14 10:39:17 GMT 44.876724 4.252167 34,375 59 511 -1536
2019-11-14 10:39:14 GMT 44.869171 4.234118 34,500 57 514 -1472
2019-11-14 10:39:11 GMT 44.869171 4.234118 34,650 55 516 -1408
2019-11-14 10:39:05 GMT 44.860474 4.215676 34,675 52 519 -1408
2019-11-14 10:39:02 GMT 44.857410 4.209505 34,750 53 518 -1408
2019-11-14 10:38:59 GMT 44.853825 4.202739 34,800 52 518 -1408
2019-11-14 10:38:54 GMT 44.846287 4.188806 34,925 52 519 -1408
2019-11-14 10:38:50 GMT 44.838326 4.174403 35,050 52 520 -1408
2019-11-14 10:38:44 GMT 44.831955 4.162772 35,150 52 521 -1472
2019-11-14 10:38:40 GMT 44.817001 4.135549 35,300 52 523 -1472
2019-11-14 10:38:34 GMT 44.817001 4.135549 35,375 52 522 -1472
2019-11-14 10:38:31 GMT 44.810814 4.124227 35,675 52 523 -1472
2019-11-14 10:38:23 GMT 44.795357 4.095958 36,050 52 519 -1536
2019-11-14 10:38:20 GMT 44.795357 4.095958 35,750 52 522 -1408
2019-11-14 10:38:13 GMT 44.786499 4.079721 35,875 52 520 -1472
2019-11-14 10:38:08 GMT 44.777107 4.062396 36,075 52 519 -1536
2019-11-14 10:38:03 GMT 44.772175 4.053285 36,100 52 518 -1536
2019-11-14 10:37:59 GMT 44.763981 4.037945 36,250 53 517 -1536
2019-11-14 10:37:55 GMT 44.760395 4.031246 36,350 53 516 -1472
2019-11-14 10:37:52 GMT 44.755463 4.021977 36,450 53 516 -1408
2019-11-14 10:37:49 GMT 44.745312 4.002775 36,575 53 514 -1408
2019-11-14 10:37:45 GMT 44.741123 3.994736 36,850 53 511 -1408
2019-11-14 10:37:42 GMT 44.741123 3.994736 36,700 53 512 -1408
2019-11-14 10:37:38 GMT 44.734093 3.981338 36,800 53 511 -1408
2019-11-14 10:37:32 GMT 44.727081 3.967830 36,925 54 510 -1408
2019-11-14 10:37:29 GMT 44.723053 3.959983 37,000 54 510 -1408
2019-11-14 10:37:24 GMT 44.716404 3.946905 37,125 54 509 -1344
2019-11-14 10:37:19 GMT 44.709778 3.933890 37,225 54 510 -1344
2019-11-14 10:37:14 GMT 44.702393 3.919105 37,325 55 510 -1344
2019-11-14 10:37:10 GMT 44.696201 3.906578 37,425 55 511 -1344
2019-11-14 10:37:04 GMT 44.689030 3.892175 37,550 54 514 -1536
2019-11-14 10:36:59 GMT 44.682861 3.879809 37,625 54 514 -1536
2019-11-14 10:36:54 GMT 44.675629 3.865291 37,800 54 516 -1344
2019-11-14 10:36:50 GMT 44.670044 3.854109 37,875 54 516 -1280
2019-11-14 10:36:47 GMT 44.665924 3.845934 37,950 54 515 -832
2019-11-14 10:36:44 GMT 44.661846 3.837913 38,025 54 515 -640
2019-11-14 10:36:39 GMT 44.655075 3.824354 38,025 54 515 -448
2019-11-14 10:36:36 GMT 44.651695 3.817749 38,025 54 514 -64
2019-11-14 10:36:33 GMT 44.641685 3.797853 38,050 54 514 0
2019-11-14 10:36:29 GMT 44.641685 3.797853 38,050 54 514 0
2019-11-14 10:36:26 GMT 44.637825 3.790283 38,025 54 513 64
2019-11-14 10:36:23 GMT 44.626465 3.767708 38,025 54 513 64
2019-11-14 10:36:19 GMT 44.626465 3.767708 38,000 54 513 64
2019-11-14 10:36:12 GMT 44.612732 3.740387 38,000 54 513 64
2019-11-14 10:36:08 GMT 44.612732 3.740387 38,000 54 513 64
2019-11-14 10:36:01 GMT 44.601978 3.719073 38,000 54 513 0
2019-11-14 10:35:58 GMT 44.588200 3.691674 38,000 54 512 64
2019-11-14 10:35:50 GMT 44.588200 3.691674 38,000 54 512 64
2019-11-14 10:35:47 GMT 44.583591 3.682497 38,000 54 511 64
2019-11-14 10:35:42 GMT 44.570297 3.656158 37,975 54 510 64
2019-11-14 10:35:38 GMT 44.564922 3.645518 37,975 54 510 0
2019-11-14 10:35:30 GMT 44.560776 3.637259 37,975 54 510 0
2019-11-14 10:35:25 GMT 44.554031 3.623948 37,975 54 509 0
2019-11-14 10:35:19 GMT 44.546162 3.608339 37,975 54 509 64
2019-11-14 10:35:15 GMT 44.540497 3.597172 37,975 54 508 64
2019-11-14 10:35:11 GMT 44.535408 3.587170 37,975 54 508 0
2019-11-14 10:35:06 GMT 44.528099 3.572700 37,975 54 507 0
2019-11-14 10:35:01 GMT 44.521164 3.559034 37,975 54 507 0
2019-11-14 10:34:55 GMT 44.513294 3.543560 37,975 54 507 0
2019-11-14 10:34:51 GMT 44.507851 3.532841 37,975 54 505 0
2019-11-14 10:34:45 GMT 44.499889 3.517099 37,975 54 505 0
2019-11-14 10:34:41 GMT 44.494396 3.506179 37,975 54 505 0
2019-11-14 10:34:35 GMT 44.486481 3.490437 37,975 54 504 0
2019-11-14 10:34:30 GMT 44.480431 3.478379 37,975 54 505 0
2019-11-14 10:34:24 GMT 44.470688 3.459124 37,975 52 504 -64
2019-11-14 10:34:20 GMT 44.466000 3.449975 37,975 53 504 0
2019-11-14 10:34:14 GMT 44.458282 3.435516 37,975 52 504 -64
2019-11-14 10:34:10 GMT 44.452423 3.424988 37,975 51 503 -64
2019-11-14 10:34:05 GMT 44.444000 3.410274 37,975 50 502 -64
2019-11-14 10:34:00 GMT 44.437820 3.399745 37,975 50 502 0
2019-11-14 10:33:54 GMT 44.429123 3.385032 37,975 50 501 64
2019-11-14 10:33:50 GMT 44.422623 3.374045 37,975 50 502 64
2019-11-14 10:33:45 GMT 44.415070 3.361359 37,975 50 501 0
2019-11-14 10:33:39 GMT 44.407562 3.348607 37,975 50 501 64
2019-11-14 10:33:35 GMT 44.399277 3.334678 37,950 50 501 64
2019-11-14 10:33:25 GMT 44.383026 3.307277 37,950 50 501 0
2019-11-14 10:33:18 GMT 44.376152 3.295697 37,975 50 501 -64
2019-11-14 10:33:14 GMT 44.369614 3.284651 37,975 50 500 -128
2019-11-14 10:33:09 GMT 44.361862 3.271581 38,000 50 500 -64
2019-11-14 10:33:04 GMT 44.354691 3.259539 38,000 50 500 -64
2019-11-14 10:32:57 GMT 44.345287 3.243780 38,000 50 499 -64
2019-11-14 10:32:54 GMT 44.339935 3.234871 38,000 50 500 0
2019-11-14 10:32:46 GMT 44.329193 3.217032 38,000 50 499 0
2019-11-14 10:32:43 GMT 44.323837 3.208139 38,000 49 500 0
2019-11-14 10:32:38 GMT 44.315914 3.194945 38,000 50 501 0
2019-11-14 10:32:33 GMT 44.308960 3.183419 38,000 50 500 0
2019-11-14 10:32:28 GMT 44.301727 3.171321 38,000 50 501 0
2019-11-14 10:32:23 GMT 44.294407 3.159038 38,000 51 501 64
2019-11-14 10:32:17 GMT 44.286072 3.144575 37,975 52 501 0
2019-11-14 10:32:14 GMT 44.280441 3.134242 38,000 54 501 0
2019-11-14 10:32:06 GMT 44.271038 3.115629 38,000 59 501 0
2019-11-14 10:32:03 GMT 44.265884 3.104749 38,000 58 501 0
2019-11-14 10:31:56 GMT 44.258194 3.087093 38,000 59 501 -64
2019-11-14 10:31:53 GMT 44.255165 3.080057 38,000 59 501 -64
2019-11-14 10:31:45 GMT 44.245834 3.057992 38,000 59 501 -64
2019-11-14 10:31:41 GMT 44.240036 3.044218 38,000 59 501 -64
2019-11-14 10:31:36 GMT 44.234493 3.031155 38,000 59 501 0
2019-11-14 10:31:33 GMT 44.230453 3.021567 38,025 59 502 0
2019-11-14 10:31:25 GMT 44.222065 3.001679 38,000 59 502 0
2019-11-14 10:31:22 GMT 44.209682 2.972472 38,000 59 502 0
2019-11-14 10:31:15 GMT 44.209682 2.972472 38,000 59 502 -64
2019-11-14 10:31:11 GMT 44.205505 2.962581 38,000 59 503 -64
2019-11-14 10:31:06 GMT 44.199600 2.948652 38,025 59 503 -64
2019-11-14 10:31:03 GMT 44.193924 2.935330 38,025 59 503 0
2019-11-14 10:30:56 GMT 44.187569 2.920401 38,000 59 504 64
2019-11-14 10:30:52 GMT 44.181797 2.906799 38,000 59 504 0
2019-11-14 10:30:43 GMT 44.172226 2.884358 38,000 59 504 0
2019-11-14 10:30:40 GMT 44.168858 2.876391 38,000 59 505 0
2019-11-14 10:30:33 GMT 44.159912 2.855296 38,000 59 505 0
2019-11-14 10:30:25 GMT 44.151123 2.834664 38,000 59 505 0
2019-11-14 10:30:22 GMT 44.147552 2.826297 38,000 59 505 64
2019-11-14 10:30:15 GMT 44.139359 2.807007 38,000 59 505 0
2019-11-14 10:30:12 GMT 44.135330 2.797553 38,000 59 505 0
2019-11-14 10:30:05 GMT 44.127228 2.778583 38,000 59 505 0
2019-11-14 10:30:01 GMT 44.122604 2.767660 38,000 59 506 0
2019-11-14 10:29:55 GMT 44.115280 2.750351 38,000 59 506 0
2019-11-14 10:29:51 GMT 44.110519 2.739173 38,000 59 506 0
2019-11-14 10:29:41 GMT 44.098526 2.710940 38,000 59 505 -64
2019-11-14 10:29:34 GMT 44.091019 2.693375 38,000 59 506 0
2019-11-14 10:29:30 GMT 44.086212 2.682197 38,000 59 506 0
2019-11-14 10:29:24 GMT 44.078220 2.663661 38,000 59 506 64
2019-11-14 10:29:20 GMT 44.073395 2.652368 38,000 59 506 0
2019-11-14 10:29:14 GMT 44.066574 2.636527 38,000 59 506 0
2019-11-14 10:29:09 GMT 44.060898 2.623114 38,000 59 506 0
2019-11-14 10:29:04 GMT 44.054756 2.608730 38,000 59 506 -64
2019-11-14 10:28:59 GMT 44.048126 2.593221 38,000 59 506 -64
2019-11-14 10:28:52 GMT 44.040710 2.575975 38,025 59 506 -64
2019-11-14 10:28:49 GMT 44.036091 2.565242 38,025 59 506 -64
2019-11-14 10:28:42 GMT 44.028408 2.547389 38,025 59 506 64
2019-11-14 10:28:38 GMT 44.023521 2.536011 38,025 59 506 0
2019-11-14 10:28:33 GMT 44.017609 2.522343 38,025 59 506 64
2019-11-14 10:28:27 GMT 44.010532 2.505929 38,025 59 506 64
2019-11-14 10:28:23 GMT 44.005325 2.493833 38,025 59 507 0
2019-11-14 10:28:18 GMT 43.999191 2.479589 38,000 59 506 64
2019-11-14 10:28:12 GMT 43.992657 2.464469 38,025 59 507 0
2019-11-14 10:28:07 GMT 43.986000 2.449101 38,000 59 507 64
2019-11-14 10:28:02 GMT 43.980694 2.436872 38,000 59 506 64
2019-11-14 10:27:57 GMT 43.974316 2.422093 38,000 59 507 0
2019-11-14 10:27:52 GMT 43.967789 2.406900 38,025 59 507 -64
2019-11-14 10:27:47 GMT 43.961563 2.392401 38,025 59 507 0
2019-11-14 10:27:42 GMT 43.955601 2.378605 38,025 59 507 -64
2019-11-14 10:27:36 GMT 43.948898 2.362976 38,000 59 507 -64
2019-11-14 10:27:32 GMT 43.943665 2.350819 38,025 59 506 -64
2019-11-14 10:27:26 GMT 43.936516 2.334268 38,025 59 506 -64
2019-11-14 10:27:21 GMT 43.931076 2.321628 38,025 59 506 -64
2019-11-14 10:27:16 GMT 43.919403 2.294610 38,025 59 506 -64
2019-11-14 10:27:11 GMT 43.919403 2.294610 38,050 59 507 -64
2019-11-14 10:27:07 GMT 43.914539 2.283325 38,025 59 507 -64
2019-11-14 10:27:04 GMT 43.910168 2.273320 38,050 59 507 -64
2019-11-14 10:27:00 GMT 43.904999 2.261353 38,050 59 507 0
2019-11-14 10:26:55 GMT 43.894547 2.237315 38,050 58 507 0
2019-11-14 10:26:51 GMT 43.894547 2.237315 38,025 58 507 0
2019-11-14 10:26:48 GMT 43.890701 2.228436 38,050 58 507 0
2019-11-14 10:26:45 GMT 43.887039 2.220133 38,050 58 507 0
2019-11-14 10:26:40 GMT 43.881729 2.207869 38,050 58 508 64
2019-11-14 10:26:37 GMT 43.878277 2.199947 38,025 58 508 64
2019-11-14 10:26:34 GMT 43.874043 2.190203 38,025 58 508 64
2019-11-14 10:26:30 GMT 43.869663 2.180198 38,025 58 508 64
2019-11-14 10:26:27 GMT 43.864777 2.169080 38,025 58 508 64
2019-11-14 10:26:23 GMT 43.860809 2.160091 38,025 58 508 64
2019-11-14 10:26:20 GMT 43.855141 2.147173 38,000 58 509 0
2019-11-14 10:26:14 GMT 43.849323 2.133767 38,025 58 509 0
2019-11-14 10:26:10 GMT 43.844971 2.123938 38,025 58 508 0
2019-11-14 10:26:07 GMT 43.840664 2.114018 38,025 58 508 64
2019-11-14 10:26:03 GMT 43.836502 2.104457 38,025 58 508 64
2019-11-14 10:26:00 GMT 43.832840 2.096089 38,000 58 507 0
2019-11-14 10:25:57 GMT 43.828651 2.086552 38,000 58 507 0
2019-11-14 10:25:53 GMT 43.824097 2.076097 38,000 58 507 0
2019-11-14 10:25:48 GMT 43.818130 2.062356 38,000 58 507 0
2019-11-14 10:25:45 GMT 43.814594 2.054313 38,000 58 507 0
2019-11-14 10:25:42 GMT 43.810730 2.045419 38,025 58 507 0
2019-11-14 10:25:39 GMT 43.807022 2.036942 38,025 58 507 0
2019-11-14 10:25:35 GMT 43.802258 2.025997 38,025 58 507 0
2019-11-14 10:25:30 GMT 43.794857 2.009059 38,025 58 507 0
2019-11-14 10:25:27 GMT 43.791225 2.000754 38,025 58 507 0
2019-11-14 10:25:21 GMT 43.785870 1.988591 38,025 58 507 0
2019-11-14 10:25:12 GMT 43.774155 1.961890 38,025 58 507 0
2019-11-14 10:25:09 GMT 43.770630 1.953842 38,025 58 507 0
2019-11-14 10:25:05 GMT 43.765854 1.942880 38,000 58 507 64
2019-11-14 10:24:59 GMT 43.757706 1.924373 38,000 58 506 64
2019-11-14 10:24:55 GMT 43.752319 1.912068 38,000 58 506 64
2019-11-14 10:24:48 GMT 43.744949 1.895205 38,000 58 506 64
2019-11-14 10:24:45 GMT 43.741367 1.887098 38,000 58 506 64
2019-11-14 10:24:38 GMT 43.733688 1.869528 37,975 58 505 64
2019-11-14 10:24:35 GMT 43.729263 1.859501 37,975 58 505 64
2019-11-14 10:24:28 GMT 43.720604 1.839948 37,975 58 504 64
2019-11-14 10:24:25 GMT 43.716972 1.831709 37,975 58 504 0
2019-11-14 10:24:18 GMT 43.708511 1.812616 37,975 58 504 64
2019-11-14 10:24:15 GMT 43.704987 1.804696 37,975 58 504 0
2019-11-14 10:24:08 GMT 43.696026 1.784559 37,975 58 503 0
2019-11-14 10:24:05 GMT 43.691711 1.774867 37,950 58 503 64
2019-11-14 10:23:57 GMT 43.683128 1.755458 37,950 58 502 64
2019-11-14 10:23:53 GMT 43.678150 1.744210 37,950 58 502 64
2019-11-14 10:23:47 GMT 43.671204 1.728494 37,950 58 502 0
2019-11-14 10:23:43 GMT 43.666653 1.718249 37,950 58 502 0
2019-11-14 10:23:37 GMT 43.658829 1.700527 37,950 58 501 0
2019-11-14 10:23:33 GMT 43.654312 1.690456 37,950 58 501 -64
2019-11-14 10:23:26 GMT 43.645935 1.671519 37,950 58 499 64
2019-11-14 10:23:23 GMT 43.642399 1.663513 37,950 58 499 0
2019-11-14 10:23:17 GMT 43.633972 1.644549 37,950 58 499 0
2019-11-14 10:23:14 GMT 43.630417 1.636516 37,950 58 499 0
2019-11-14 10:23:06 GMT 43.622055 1.617737 37,975 58 498 -128
2019-11-14 10:23:03 GMT 43.618237 1.609039 37,975 58 498 -128
2019-11-14 10:22:56 GMT 43.609718 1.589813 37,975 58 497 -64
2019-11-14 10:22:53 GMT 43.605991 1.581443 37,975 58 497 -64
2019-11-14 10:22:45 GMT 43.596638 1.560386 37,975 58 497 -64
2019-11-14 10:22:42 GMT 43.592911 1.552015 37,975 58 496 -64
2019-11-14 10:22:35 GMT 43.584961 1.534062 38,000 58 496 0
2019-11-14 10:22:32 GMT 43.581181 1.525596 38,000 58 496 0
2019-11-14 10:22:26 GMT 43.572334 1.505650 38,000 58 497 0
2019-11-14 10:22:23 GMT 43.568893 1.497909 38,000 58 497 0
2019-11-14 10:22:15 GMT 43.560425 1.478747 38,000 58 497 0
2019-11-14 10:22:12 GMT 43.556808 1.470635 38,000 58 497 0
2019-11-14 10:22:05 GMT 43.548595 1.452157 38,000 58 497 0
2019-11-14 10:22:02 GMT 43.545010 1.444114 38,000 58 497 0
2019-11-14 10:21:55 GMT 43.536621 1.425348 38,000 58 498 0
2019-11-14 10:21:51 GMT 43.531815 1.414554 38,000 58 498 0
2019-11-14 10:21:45 GMT 43.524529 1.398272 38,000 58 498 0
2019-11-14 10:21:41 GMT 43.519913 1.387854 38,000 58 498 0
2019-11-14 10:21:35 GMT 43.511772 1.369629 38,000 58 499 0
2019-11-14 10:21:31 GMT 43.508286 1.361985 38,000 58 499 0
2019-11-14 10:21:27 GMT 43.503204 1.350616 38,000 58 499 -64
2019-11-14 10:21:24 GMT 43.498924 1.341051 38,025 58 499 -64
2019-11-14 10:21:21 GMT 43.495926 1.334456 38,000 58 499 0
2019-11-14 10:21:14 GMT 43.486774 1.314043 38,025 58 500 0
2019-11-14 10:21:10 GMT 43.482468 1.304499 38,025 58 500 64
2019-11-14 10:21:03 GMT 43.470665 1.278142 38,025 58 500 -64
2019-11-14 10:21:00 GMT 43.470665 1.278142 38,000 58 500 -64
2019-11-14 10:20:52 GMT 43.460705 1.255907 38,025 58 502 -64
2019-11-14 10:20:49 GMT 43.457108 1.247970 38,025 58 502 -64
2019-11-14 10:20:44 GMT 43.445808 1.222883 38,025 58 502 0
2019-11-14 10:20:33 GMT 43.433659 1.196136 38,025 58 503 0
2019-11-14 10:20:23 GMT 43.424580 1.176060 38,025 58 504 0
2019-11-14 10:20:20 GMT 43.420853 1.167744 38,025 58 504 0
2019-11-14 10:20:12 GMT 43.411423 1.146858 38,025 58 504 64
2019-11-14 10:20:09 GMT 43.407681 1.138524 38,025 58 504 64
2019-11-14 10:20:03 GMT 43.396881 1.114589 38,000 58 505 64
2019-11-14 10:19:57 GMT 43.393204 1.106415 38,000 58 505 64
2019-11-14 10:19:50 GMT 43.383545 1.085028 38,000 58 506 0
2019-11-14 10:19:46 GMT 43.379658 1.076399 38,000 58 506 0
2019-11-14 10:19:40 GMT 43.370316 1.055837 38,000 58 506 64
2019-11-14 10:19:37 GMT 43.367981 1.050663 38,000 58 506 64
2019-11-14 10:19:29 GMT 43.358521 1.029837 38,000 58 506 64
2019-11-14 10:19:26 GMT 43.355347 1.022942 38,000 58 506 64
2019-11-14 10:19:22 GMT 43.349350 1.009696 37,975 58 507 64
2019-11-14 10:19:17 GMT 43.342926 0.995505 37,975 58 507 0
2019-11-14 10:19:12 GMT 43.336735 0.981903 37,975 58 507 -64
2019-11-14 10:19:09 GMT 43.329849 0.966733 37,975 58 507 -64
2019-11-14 10:19:06 GMT 43.329849 0.966733 38,000 58 507 -64
2019-11-14 10:18:59 GMT 43.320766 0.946721 38,000 58 507 -64
2019-11-14 10:18:56 GMT 43.317719 0.940034 38,000 58 506 -64
2019-11-14 10:18:50 GMT 43.309502 0.921936 38,000 58 506 -64
2019-11-14 10:18:47 GMT 43.306961 0.916336 38,025 58 506 -64
2019-11-14 10:18:40 GMT 43.297394 0.895386 38,025 58 506 -64
2019-11-14 10:18:37 GMT 43.293823 0.887465 38,025 58 506 -64
2019-11-14 10:18:29 GMT 43.283890 0.865684 38,025 58 506 -64
2019-11-14 10:18:25 GMT 43.278214 0.853165 38,025 58 506 0
2019-11-14 10:18:19 GMT 43.271988 0.839560 38,025 58 506 64
2019-11-14 10:18:15 GMT 43.267235 0.829075 38,025 57 507 64
2019-11-14 10:18:08 GMT 43.257175 0.807037 38,025 58 508 0
2019-11-14 10:18:05 GMT 43.254662 0.801610 38,025 58 508 0
2019-11-14 10:17:58 GMT 43.242096 0.773961 38,025 58 508 0
2019-11-14 10:17:55 GMT 43.242096 0.773961 38,025 58 508 0
2019-11-14 10:17:50 GMT 43.234863 0.758184 38,025 58 508 64
2019-11-14 10:17:47 GMT 43.231750 0.751350 38,025 58 508 64
2019-11-14 10:17:43 GMT 43.227615 0.742231 38,000 57 508 64
2019-11-14 10:17:40 GMT 43.222496 0.731049 38,000 57 508 0
2019-11-14 10:17:37 GMT 43.219376 0.724248 38,000 57 508 -64
2019-11-14 10:17:34 GMT 43.216324 0.717561 38,025 57 508 -64
2019-11-14 10:17:28 GMT 43.208817 0.701273 38,000 57 508 0
2019-11-14 10:17:25 GMT 43.204014 0.690765 38,000 57 508 64
2019-11-14 10:17:17 GMT 43.193710 0.668314 38,000 57 509 0
2019-11-14 10:17:14 GMT 43.191238 0.662884 38,000 57 509 64
2019-11-14 10:17:09 GMT 43.184097 0.647363 38,000 57 509 0
2019-11-14 10:17:03 GMT 43.177898 0.633937 38,000 57 508 64
2019-11-14 10:16:59 GMT 43.168404 0.613273 38,000 57 508 64
2019-11-14 10:16:56 GMT 43.163513 0.602679 37,975 57 508 0
2019-11-14 10:16:46 GMT 43.155506 0.585284 38,000 57 508 0
2019-11-14 10:16:43 GMT 43.151737 0.577109 38,000 57 508 0
2019-11-14 10:16:39 GMT 43.146523 0.565731 38,000 57 508 0
2019-11-14 10:16:36 GMT 43.142891 0.557818 38,000 57 508 0
2019-11-14 10:16:32 GMT 43.138889 0.549120 38,000 57 507 0
2019-11-14 10:16:26 GMT 43.130043 0.529829 38,000 57 507 0
2019-11-14 10:16:21 GMT 43.125294 0.519562 38,000 57 507 0
2019-11-14 10:16:15 GMT 43.117035 0.501475 38,000 57 507 -64
2019-11-14 10:16:12 GMT 43.113190 0.493208 38,000 57 508 -64
2019-11-14 10:16:08 GMT 43.106583 0.478886 38,000 57 507 -64
2019-11-14 10:16:04 GMT 43.098808 0.462080 38,025 57 507 0
2019-11-14 10:16:00 GMT 43.098808 0.462080 38,025 57 506 0
2019-11-14 10:15:53 GMT 43.089478 0.441944 38,000 57 506 0
2019-11-14 10:15:50 GMT 43.085632 0.433577 38,000 57 507 0
2019-11-14 10:15:47 GMT 43.082474 0.426806 38,000 57 507 0
2019-11-14 10:15:44 GMT 43.078930 0.419115 38,000 57 507 0
2019-11-14 10:15:40 GMT 43.073902 0.408325 38,000 57 507 -64
2019-11-14 10:15:36 GMT 43.064072 0.387076 38,000 57 507 0
2019-11-14 10:15:33 GMT 43.064072 0.387076 38,000 57 507 0
2019-11-14 10:15:30 GMT 43.061417 0.381392 38,000 57 508 0
2019-11-14 10:15:25 GMT 43.053928 0.365295 37,975 56 510 0
2019-11-14 10:15:22 GMT 43.050812 0.358494 38,025 57 508 -64
2019-11-14 10:15:19 GMT 43.047729 0.351882 38,025 57 508 -64
2019-11-14 10:15:12 GMT 43.038101 0.331094 38,025 57 508 0
2019-11-14 10:15:09 GMT 43.034317 0.322883 38,000 57 508 0
2019-11-14 10:15:06 GMT 43.030655 0.315027 38,000 57 508 64
2019-11-14 10:15:02 GMT 43.025299 0.303338 37,975 57 509 64
2019-11-14 10:14:56 GMT 43.017929 0.287305 37,975 57 509 64
2019-11-14 10:14:52 GMT 43.012917 0.276620 37,975 57 510 64
2019-11-14 10:14:46 GMT 43.005005 0.260271 37,975 55 510 64
2019-11-14 10:14:43 GMT 43.000397 0.251089 38,000 55 509 64
2019-11-14 10:14:38 GMT 42.995132 0.240869 38,000 54 509 0
2019-11-14 10:14:33 GMT 42.987175 0.226004 37,975 52 508 0
2019-11-14 10:14:27 GMT 42.979492 0.212206 38,000 52 507 0
2019-11-14 10:14:20 GMT 42.969864 0.195518 38,000 51 505 -64
2019-11-14 10:14:15 GMT 42.961246 0.180686 38,025 51 501 -128
2019-11-14 10:14:10 GMT 42.955399 0.170671 38,025 51 501 -128
2019-11-14 10:14:07 GMT 42.950363 0.161984 38,025 51 500 -128
2019-11-14 10:14:00 GMT 42.939789 0.143717 38,025 51 499 -64
2019-11-14 10:13:52 GMT 42.928146 0.123662 38,025 51 500 0
2019-11-14 10:13:44 GMT 42.916508 0.103651 38,025 51 500 0
2019-11-14 10:13:41 GMT 42.913559 0.098621 38,025 51 500 0
2019-11-14 10:13:36 GMT 42.906097 0.085783 38,025 51 501 -64
2019-11-14 10:13:30 GMT 42.897236 0.070626 38,025 51 501 -64
2019-11-14 10:13:25 GMT 42.883640 0.047411 38,025 51 501 64
2019-11-14 10:13:20 GMT 42.883640 0.047411 38,000 51 502 128
2019-11-14 10:13:13 GMT 42.872238 0.027858 38,000 51 503 128
2019-11-14 10:13:10 GMT 42.867966 0.020631 38,000 51 503 64
2019-11-14 10:13:02 GMT 42.855286 -0.000830 38,000 51 503 0
2019-11-14 10:12:52 GMT 42.842724 -0.022234 38,000 51 503 0
2019-11-14 10:12:49 GMT 42.837650 -0.030932 38,000 51 503 0
2019-11-14 10:12:40 GMT 42.823105 -0.055826 38,000 51 503 64
2019-11-14 10:12:34 GMT 42.805161 -0.086580 38,000 51 503 -64
2019-11-14 10:12:22 GMT 42.798592 -0.097855 38,000 51 504 -64
2019-11-14 10:12:19 GMT 42.794960 -0.104051 38,000 51 504 -64
2019-11-14 10:12:12 GMT 42.783691 -0.123222 38,025 51 504 -64
2019-11-14 10:12:03 GMT 42.771545 -0.143908 38,025 51 504 -64
2019-11-14 10:12:00 GMT 42.766888 -0.151765 38,025 51 504 0
2019-11-14 10:11:51 GMT 42.749710 -0.181019 38,050 51 505 0
2019-11-14 10:11:41 GMT 42.725922 -0.221323 38,025 51 505 0
2019-11-14 10:11:33 GMT 42.725922 -0.221323 38,025 51 505 0
2019-11-14 10:11:29 GMT 42.721893 -0.228154 38,025 51 505 0
2019-11-14 10:11:22 GMT 42.710838 -0.246809 38,025 51 505 -64
2019-11-14 10:11:19 GMT 42.707489 -0.252494 38,025 51 505 0
2019-11-14 10:11:13 GMT 42.697853 -0.268846 38,025 51 505 0
2019-11-14 10:11:10 GMT 42.692730 -0.277533 38,025 51 505 0
2019-11-14 10:11:00 GMT 42.679184 -0.300527 38,025 51 505 0
2019-11-14 10:10:56 GMT 42.673645 -0.309917 38,025 51 505 0
2019-11-14 10:10:51 GMT 42.666550 -0.321912 38,025 51 505 0
2019-11-14 10:10:48 GMT 42.660332 -0.332336 38,025 50 504 0
2019-11-14 10:10:42 GMT 42.651344 -0.346900 38,025 49 503 -64
2019-11-14 10:10:37 GMT 42.645172 -0.356556 38,050 48 503 -64
2019-11-14 10:10:27 GMT 42.629745 -0.379590 38,050 46 500 128
2019-11-14 10:10:19 GMT 42.615173 -0.399979 38,025 44 500 128
2019-11-14 10:10:06 GMT 42.594727 -0.426532 38,000 42 500 -64
2019-11-14 10:09:58 GMT 42.581268 -0.442762 38,000 40 498 -64
2019-11-14 10:09:55 GMT 42.576736 -0.448067 38,000 40 497 0
2019-11-14 10:09:47 GMT 42.560211 -0.466981 38,000 40 497 128
2019-11-14 10:09:36 GMT 42.542358 -0.487518 37,975 40 497 64
2019-11-14 10:09:28 GMT 42.527191 -0.504924 37,975 40 497 0
2019-11-14 10:09:17 GMT 42.509262 -0.525534 37,975 40 497 0
2019-11-14 10:09:07 GMT 42.491776 -0.545633 37,975 40 496 0
2019-11-14 10:08:56 GMT 42.473557 -0.566483 37,975 40 495 -64
2019-11-14 10:08:46 GMT 42.455826 -0.586810 38,000 40 495 0
2019-11-14 10:08:37 GMT 42.438046 -0.607186 38,000 40 494 0
2019-11-14 10:08:30 GMT 42.425846 -0.621111 38,000 40 494 0
2019-11-14 10:08:24 GMT 42.417206 -0.631027 38,000 40 493 0
2019-11-14 10:08:16 GMT 42.402603 -0.647756 38,000 40 494 -64
2019-11-14 10:08:09 GMT 42.390141 -0.661990 38,025 40 493 -64
2019-11-14 10:08:06 GMT 42.380630 -0.672850 38,025 40 493 -64
2019-11-14 10:07:58 GMT 42.372406 -0.682238 38,025 40 493 -64
2019-11-14 10:07:55 GMT 42.364536 -0.691181 38,025 40 493 -64
2019-11-14 10:07:49 GMT 42.355087 -0.702001 38,025 40 493 0
2019-11-14 10:07:46 GMT 42.348896 -0.709001 38,000 40 493 0
2019-11-14 10:07:39 GMT 42.337784 -0.721602 38,000 40 494 0
2019-11-14 10:07:33 GMT 42.328274 -0.732443 38,000 40 494 0
2019-11-14 10:07:29 GMT 42.319290 -0.742638 38,000 40 494 0
2019-11-14 10:07:25 GMT 42.313934 -0.748731 38,000 40 495 0
2019-11-14 10:07:18 GMT 42.301552 -0.762847 38,000 40 495 0
2019-11-14 10:07:13 GMT 42.292431 -0.773195 38,000 40 495 0
2019-11-14 10:07:08 GMT 42.284317 -0.782464 38,000 40 494 0
2019-11-14 10:07:05 GMT 42.278549 -0.789018 38,000 39 494 0
2019-11-14 10:06:58 GMT 42.266098 -0.803063 38,000 39 494 0
2019-11-14 10:06:53 GMT 42.257469 -0.812861 38,000 40 493 0
2019-11-14 10:06:45 GMT 42.242805 -0.829468 38,000 40 493 0
2019-11-14 10:06:42 GMT 42.239639 -0.833045 38,000 40 493 0
2019-11-14 10:06:38 GMT 42.230236 -0.843712 38,000 40 491 64
2019-11-14 10:06:32 GMT 42.222153 -0.852876 38,000 40 491 128
2019-11-14 10:06:27 GMT 42.213318 -0.862926 37,975 40 489 256
2019-11-14 10:06:22 GMT 42.205032 -0.872352 37,950 40 488 448
2019-11-14 10:06:16 GMT 42.194504 -0.884275 37,950 40 487 0
2019-11-14 10:06:12 GMT 42.187592 -0.892077 37,950 40 487 0
2019-11-14 10:06:03 GMT 42.170334 -0.911616 37,950 40 486 0
2019-11-14 10:05:56 GMT 42.160034 -0.923289 37,950 40 485 0
2019-11-14 10:05:52 GMT 42.152802 -0.931403 37,950 40 485 0
2019-11-14 10:05:47 GMT 42.143234 -0.942327 37,950 40 484 -64
2019-11-14 10:05:42 GMT 42.134895 -0.951723 37,950 40 484 -64
2019-11-14 10:05:37 GMT 42.125305 -0.962581 37,950 40 484 -64
2019-11-14 10:05:32 GMT 42.117764 -0.971076 37,950 39 484 0
2019-11-14 10:05:22 GMT 42.101028 -0.989893 37,975 39 484 0
2019-11-14 10:05:19 GMT 42.096119 -0.995349 37,975 39 484 0
2019-11-14 10:05:12 GMT 42.082993 -1.010180 37,975 39 484 -64
2019-11-14 10:05:05 GMT 42.072189 -1.022353 37,975 40 484 -64
2019-11-14 10:05:01 GMT 42.065323 -1.030093 37,975 39 484 -64
2019-11-14 10:04:55 GMT 42.055290 -1.041338 37,975 39 485 -64
2019-11-14 10:04:51 GMT 42.047237 -1.050472 37,975 39 485 -64
2019-11-14 10:04:45 GMT 42.032684 -1.066797 38,000 39 486 -64
2019-11-14 10:04:42 GMT 42.019592 -1.081467 38,000 39 486 -64
2019-11-14 10:04:35 GMT 42.019592 -1.081467 38,000 39 486 -64
2019-11-14 10:04:32 GMT 42.003204 -1.099881 38,000 39 486 -64
2019-11-14 10:04:25 GMT 42.003204 -1.099881 38,000 39 486 -64
2019-11-14 10:04:21 GMT 41.996979 -1.106810 38,000 39 487 0
2019-11-14 10:04:18 GMT 41.991886 -1.112493 38,000 39 487 0
2019-11-14 10:04:11 GMT 41.977921 -1.128206 38,000 39 487 0
2019-11-14 10:04:05 GMT 41.967682 -1.139640 38,000 39 489 0
2019-11-14 10:04:00 GMT 41.959122 -1.149257 38,000 39 489 0
2019-11-14 10:03:54 GMT 41.949371 -1.160119 38,000 39 488 64
2019-11-14 10:03:50 GMT 41.942356 -1.168000 38,000 39 488 64
2019-11-14 10:03:40 GMT 41.924850 -1.187545 37,975 39 489 0
2019-11-14 10:03:33 GMT 41.912701 -1.201151 38,000 39 488 0
2019-11-14 10:03:29 GMT 41.906525 -1.207997 38,000 39 487 0
2019-11-14 10:03:20 GMT 41.889587 -1.226911 38,000 39 486 0
2019-11-14 10:03:12 GMT 41.877136 -1.240768 38,000 39 486 0
2019-11-14 10:03:09 GMT 41.871037 -1.247651 38,000 39 486 0
2019-11-14 10:02:59 GMT 41.853954 -1.266749 38,025 39 486 0
2019-11-14 10:02:48 GMT 41.836170 -1.286614 38,000 39 487 0
2019-11-14 10:02:43 GMT 41.827286 -1.296636 38,000 39 489 0
2019-11-14 10:02:38 GMT 41.817829 -1.307181 38,000 39 489 0
2019-11-14 10:02:31 GMT 41.804935 -1.321553 38,000 39 492 -64
2019-11-14 10:02:28 GMT 41.800827 -1.326162 38,000 39 493 -192
2019-11-14 10:02:23 GMT 41.791534 -1.336462 38,050 39 494 0
2019-11-14 10:02:18 GMT 41.783520 -1.345378 38,050 39 494 0
2019-11-14 10:02:13 GMT 41.773510 -1.356492 38,050 39 496 0
2019-11-14 10:02:07 GMT 41.764069 -1.366986 38,050 39 496 0
2019-11-14 10:01:58 GMT 41.747253 -1.385746 38,050 39 497 0
2019-11-14 10:01:52 GMT 41.737713 -1.396350 38,050 39 497 0
2019-11-14 10:01:47 GMT 41.728680 -1.406378 38,050 39 497 0
2019-11-14 10:01:43 GMT 41.718887 -1.417236 38,050 39 497 0
2019-11-14 10:01:39 GMT 41.713623 -1.423104 38,050 39 497 64
2019-11-14 10:01:31 GMT 41.699028 -1.439273 38,050 39 497 0
2019-11-14 10:01:26 GMT 41.691330 -1.447823 38,025 39 497 0
2019-11-14 10:01:17 GMT 41.676086 -1.464677 38,025 39 497 0
2019-11-14 10:01:12 GMT 41.665745 -1.476128 38,025 39 497 0
2019-11-14 10:01:06 GMT 41.656338 -1.486476 38,025 39 497 0
2019-11-14 10:00:58 GMT 41.641525 -1.502755 38,025 39 496 64
2019-11-14 10:00:55 GMT 41.636833 -1.507937 38,025 39 496 64
2019-11-14 10:00:46 GMT 41.621284 -1.525056 38,000 39 495 128
2019-11-14 10:00:36 GMT 41.602890 -1.545452 37,975 39 495 64
2019-11-14 10:00:30 GMT 41.591537 -1.557951 37,975 39 494 64
2019-11-14 10:00:26 GMT 41.584534 -1.565614 37,975 39 494 64
2019-11-14 10:00:20 GMT 41.574268 -1.576474 37,975 37 492 64
2019-11-14 10:00:16 GMT 41.567051 -1.583884 37,975 37 491 64
2019-11-14 10:00:06 GMT 41.549549 -1.601066 37,975 34 488 -64
2019-11-14 10:00:00 GMT 41.531021 -1.617862 38,000 32 483 0
2019-11-14 09:59:57 GMT 41.531021 -1.617862 38,000 33 485 -64
2019-11-14 09:59:50 GMT 41.519714 -1.627600 38,000 32 484 -64
2019-11-14 09:59:46 GMT 41.511284 -1.634727 38,000 32 484 0
2019-11-14 09:59:40 GMT 41.497971 -1.645952 38,000 32 484 0
2019-11-14 09:59:36 GMT 41.492065 -1.650883 38,000 32 484 0
2019-11-14 09:59:30 GMT 41.480576 -1.660621 38,000 32 483 0
2019-11-14 09:59:26 GMT 41.472923 -1.667111 38,000 32 483 0
2019-11-14 09:59:18 GMT 41.457981 -1.679631 38,000 32 483 64
2019-11-14 09:59:15 GMT 41.453201 -1.683717 38,000 32 483 64
2019-11-14 09:59:09 GMT 41.440804 -1.694066 37,975 32 484 64
2019-11-14 09:59:06 GMT 41.420040 -1.711568 37,950 32 484 64
2019-11-14 09:58:59 GMT 41.420040 -1.711568 37,950 32 483 0
2019-11-14 09:58:55 GMT 41.414360 -1.716358 37,950 32 483 0
2019-11-14 09:58:47 GMT 41.400021 -1.728430 37,950 32 484 0
2019-11-14 09:58:44 GMT 41.395275 -1.732455 37,975 32 484 -64
2019-11-14 09:58:38 GMT 41.380463 -1.744873 37,975 32 482 0
2019-11-14 09:58:35 GMT 41.372314 -1.751709 37,975 32 482 -64
2019-11-14 09:58:27 GMT 41.362408 -1.759997 37,975 32 482 -64
2019-11-14 09:58:24 GMT 41.357147 -1.764429 37,975 32 482 -64
2019-11-14 09:58:18 GMT 41.343925 -1.775540 37,975 32 483 -64
2019-11-14 09:58:14 GMT 41.337502 -1.780909 38,000 32 483 -64
2019-11-14 09:58:05 GMT 41.320267 -1.795471 38,000 32 483 0
2019-11-14 09:57:57 GMT 41.305573 -1.807800 38,000 32 482 64
2019-11-14 09:57:52 GMT 41.297058 -1.814941 37,975 32 483 64
2019-11-14 09:57:46 GMT 41.285645 -1.824542 37,975 32 484 0
2019-11-14 09:57:43 GMT 41.279964 -1.829286 37,975 32 484 0
2019-11-14 09:57:37 GMT 41.266022 -1.840881 37,975 32 484 64
2019-11-14 09:57:33 GMT 41.260410 -1.845578 37,975 32 484 64
2019-11-14 09:57:28 GMT 41.250641 -1.853760 37,975 32 484 0
2019-11-14 09:57:24 GMT 41.242210 -1.860809 37,975 32 484 64
2019-11-14 09:57:16 GMT 41.227638 -1.873044 37,975 32 484 64
2019-11-14 09:57:12 GMT 41.220238 -1.879224 37,975 32 484 64
2019-11-14 09:57:06 GMT 41.208572 -1.888977 37,975 32 484 0
2019-11-14 09:57:03 GMT 41.202969 -1.893643 37,975 32 485 0
2019-11-14 09:56:55 GMT 41.183090 -1.910373 37,975 32 485 0
2019-11-14 09:56:52 GMT 41.183090 -1.910373 37,975 32 485 0
2019-11-14 09:56:46 GMT 41.169636 -1.921609 37,975 32 484 0
2019-11-14 09:56:42 GMT 41.155392 -1.933531 37,975 32 484 -64
2019-11-14 09:56:35 GMT 41.149899 -1.938151 37,975 32 484 -64
2019-11-14 09:56:32 GMT 41.144218 -1.942895 37,975 32 484 0
2019-11-14 09:56:26 GMT 41.125580 -1.958435 37,975 32 484 0
2019-11-14 09:56:22 GMT 41.125580 -1.958435 37,975 32 484 0
2019-11-14 09:56:17 GMT 41.115143 -1.967102 37,975 32 483 -64
2019-11-14 09:56:12 GMT 41.106556 -1.974231 37,975 32 484 0
2019-11-14 09:56:07 GMT 41.096420 -1.982666 37,975 32 484 0
2019-11-14 09:56:02 GMT 41.087311 -1.990234 37,975 32 484 0
2019-11-14 09:55:55 GMT 41.072063 -2.003007 37,975 32 484 -64
2019-11-14 09:55:50 GMT 41.064423 -2.009399 37,975 32 484 -64
2019-11-14 09:55:44 GMT 41.053986 -2.018066 38,000 32 483 0
2019-11-14 09:55:40 GMT 41.045387 -2.025230 38,025 32 483 0
2019-11-14 09:55:34 GMT 41.028721 -2.039087 38,000 32 483 0
2019-11-14 09:55:31 GMT 41.028721 -2.039087 38,000 31 484 0
2019-11-14 09:55:24 GMT 41.015221 -2.050199 38,000 31 484 0
2019-11-14 09:55:21 GMT 41.009541 -2.054880 38,000 32 484 0
2019-11-14 09:55:16 GMT 40.990997 -2.070129 38,025 32 485 -64
2019-11-14 09:55:12 GMT 40.990997 -2.070129 38,025 32 485 -64
2019-11-14 09:55:04 GMT 40.975021 -2.083435 38,025 32 485 -64
2019-11-14 09:55:00 GMT 40.971222 -2.086548 38,025 32 486 -64
2019-11-14 09:54:56 GMT 40.960556 -2.095459 38,025 32 486 0
2019-11-14 09:54:53 GMT 40.956757 -2.098572 38,025 32 486 0
2019-11-14 09:54:50 GMT 40.951538 -2.102946 38,025 32 487 0
2019-11-14 09:54:45 GMT 40.941574 -2.111185 38,025 32 488 0
2019-11-14 09:54:40 GMT 40.931946 -2.119141 38,025 32 488 0
2019-11-14 09:54:35 GMT 40.922195 -2.127258 38,025 32 488 0
2019-11-14 09:54:30 GMT 40.912628 -2.135193 38,025 32 488 -64
2019-11-14 09:54:25 GMT 40.902512 -2.143555 38,025 32 488 -64
2019-11-14 09:54:22 GMT 40.892761 -2.151611 38,025 32 488 -64
2019-11-14 09:54:19 GMT 40.892761 -2.151611 38,025 32 488 -64
2019-11-14 09:54:12 GMT 40.877426 -2.164246 38,050 32 488 0
2019-11-14 09:54:09 GMT 40.872070 -2.168640 38,050 32 488 0
2019-11-14 09:54:02 GMT 40.858574 -2.179787 38,050 32 488 -64
2019-11-14 09:53:59 GMT 40.853897 -2.183594 38,050 32 490 0
2019-11-14 09:53:55 GMT 40.840118 -2.195007 38,050 32 488 0
2019-11-14 09:53:49 GMT 40.833668 -2.200262 38,050 32 489 0
2019-11-14 09:53:44 GMT 40.824497 -2.207877 38,025 32 490 0
2019-11-14 09:53:39 GMT 40.814987 -2.215759 38,025 32 490 0
2019-11-14 09:53:34 GMT 40.805374 -2.223694 38,025 31 489 0
2019-11-14 09:53:31 GMT 40.800385 -2.227722 38,025 30 489 0
2019-11-14 09:53:28 GMT 40.794571 -2.232361 38,025 30 489 0
2019-11-14 09:53:24 GMT 40.785069 -2.239650 38,025 29 487 64
2019-11-14 09:53:21 GMT 40.778320 -2.244629 38,025 28 486 64
2019-11-14 09:53:18 GMT 40.775433 -2.246704 38,025 28 487 128
2019-11-14 09:53:13 GMT 40.765144 -2.254008 38,000 26 485 0
2019-11-14 09:53:09 GMT 40.754196 -2.261292 38,000 26 485 0
2019-11-14 09:53:01 GMT 40.739639 -2.270386 38,000 24 482 -64
2019-11-14 09:52:58 GMT 40.734467 -2.273483 38,025 23 482 -64
2019-11-14 09:52:54 GMT 40.724350 -2.279297 38,025 23 480 0
2019-11-14 09:52:48 GMT 40.713135 -2.285645 38,025 23 480 0
2019-11-14 09:52:43 GMT 40.703415 -2.291086 38,025 23 479 0
2019-11-14 09:52:40 GMT 40.698109 -2.294083 38,025 23 480 0
2019-11-14 09:52:37 GMT 40.691711 -2.297668 38,025 23 479 0
2019-11-14 09:52:31 GMT 40.676193 -2.306396 38,025 23 479 0
2019-11-14 09:52:28 GMT 40.672226 -2.308627 38,025 23 479 0
2019-11-14 09:52:23 GMT 40.661682 -2.314575 38,025 23 480 0
2019-11-14 09:52:18 GMT 40.650997 -2.320550 38,025 23 480 0
2019-11-14 09:52:12 GMT 40.640755 -2.326293 38,025 23 480 0
2019-11-14 09:52:07 GMT 40.629822 -2.332458 38,025 23 480 64
2019-11-14 09:52:02 GMT 40.620319 -2.337778 38,000 23 480 64
2019-11-14 09:51:59 GMT 40.614304 -2.341125 38,000 23 480 64
2019-11-14 09:51:56 GMT 40.608170 -2.344543 38,000 23 480 64
2019-11-14 09:51:53 GMT 40.599277 -2.349514 38,000 23 479 64
2019-11-14 09:51:47 GMT 40.588394 -2.355652 38,000 23 479 64
2019-11-14 09:51:40 GMT 40.570953 -2.365479 38,000 23 479 0
2019-11-14 09:51:37 GMT 40.567806 -2.367242 38,000 23 478 0
2019-11-14 09:51:32 GMT 40.557724 -2.372925 38,000 23 478 64
2019-11-14 09:51:27 GMT 40.546440 -2.379289 37,975 23 478 64
2019-11-14 09:51:22 GMT 40.537270 -2.384408 37,975 23 478 64
2019-11-14 09:51:16 GMT 40.526184 -2.390625 37,975 23 478 64
2019-11-14 09:51:11 GMT 40.516205 -2.396240 37,950 23 478 64
2019-11-14 09:51:06 GMT 40.505722 -2.402039 37,950 23 478 0
2019-11-14 09:51:01 GMT 40.495651 -2.407691 37,950 23 478 0
2019-11-14 09:50:58 GMT 40.489059 -2.411377 37,950 23 477 64
2019-11-14 09:50:55 GMT 40.483978 -2.414185 37,950 23 477 0
2019-11-14 09:50:52 GMT 40.463810 -2.425482 37,950 23 476 64
2019-11-14 09:50:46 GMT 40.463810 -2.425482 37,950 23 476 64
2019-11-14 09:50:39 GMT 40.449657 -2.433409 37,950 23 475 0
2019-11-14 09:50:35 GMT 40.443054 -2.437073 37,950 23 475 0
2019-11-14 09:50:31 GMT 40.433762 -2.442261 37,950 23 475 0
2019-11-14 09:50:25 GMT 40.422333 -2.448703 37,950 23 474 0
2019-11-14 09:50:21 GMT 40.413162 -2.453796 37,950 23 474 0
2019-11-14 09:50:17 GMT 40.405884 -2.457825 37,950 23 474 -64
2019-11-14 09:50:11 GMT 40.393066 -2.464966 37,975 23 474 -64
2019-11-14 09:50:07 GMT 40.384964 -2.469482 37,975 23 474 -64
2019-11-14 09:50:00 GMT 40.373062 -2.476135 37,975 23 474 -64
2019-11-14 09:49:57 GMT 40.366890 -2.479539 37,975 23 474 -64
2019-11-14 09:49:54 GMT 40.358833 -2.484034 37,975 23 474 -64
2019-11-14 09:49:51 GMT 40.351868 -2.487915 38,000 22 473 -64
2019-11-14 09:49:47 GMT 40.346603 -2.490845 38,000 22 473 -128
2019-11-14 09:49:44 GMT 40.339966 -2.494507 38,000 22 473 -128
2019-11-14 09:49:40 GMT 40.332092 -2.498901 38,000 22 473 -64
2019-11-14 09:49:37 GMT 40.326344 -2.502074 38,025 22 473 -64
2019-11-14 09:49:34 GMT 40.319496 -2.505882 38,025 22 473 -64
2019-11-14 09:49:28 GMT 40.305908 -2.513428 38,025 22 473 -64
2019-11-14 09:49:24 GMT 40.298923 -2.517242 38,025 22 473 0
2019-11-14 09:49:20 GMT 40.291054 -2.521612 38,025 22 474 0
2019-11-14 09:49:17 GMT 40.284817 -2.525108 38,025 22 474 -64
2019-11-14 09:49:14 GMT 40.277664 -2.529053 38,025 22 474 -64
2019-11-14 09:49:10 GMT 40.270664 -2.532910 38,025 23 474 -64
2019-11-14 09:49:06 GMT 40.262798 -2.537280 38,025 23 474 -64
2019-11-14 09:48:59 GMT 40.249252 -2.544833 38,025 23 475 0
2019-11-14 09:48:56 GMT 40.242233 -2.548706 38,025 23 476 0
2019-11-14 09:48:53 GMT 40.236263 -2.552012 38,025 23 476 0
2019-11-14 09:48:50 GMT 40.228580 -2.556319 38,025 23 476 0
2019-11-14 09:48:46 GMT 40.223602 -2.559082 38,000 23 476 64
2019-11-14 09:48:43 GMT 40.216324 -2.563110 38,000 23 477 64
2019-11-14 09:48:39 GMT 40.207581 -2.567993 38,000 23 477 64
2019-11-14 09:48:35 GMT 40.200073 -2.572144 38,000 23 477 64
2019-11-14 09:48:32 GMT 40.194321 -2.575358 38,000 23 477 64
2019-11-14 09:48:29 GMT 40.187302 -2.579224 38,000 23 478 64
2019-11-14 09:48:25 GMT 40.180389 -2.583069 38,000 23 478 64
2019-11-14 09:48:22 GMT 40.172951 -2.587218 38,000 23 478 64
2019-11-14 09:48:19 GMT 40.166748 -2.590637 38,000 23 478 64
2019-11-14 09:48:14 GMT 40.157452 -2.595832 37,975 23 478 64
2019-11-14 09:48:11 GMT 40.152283 -2.598694 38,000 23 479 64
2019-11-14 09:48:08 GMT 40.146149 -2.602112 37,975 23 479 64
2019-11-14 09:48:05 GMT 40.124954 -2.613831 37,975 22 479 0
2019-11-14 09:47:59 GMT 40.124954 -2.613831 37,975 22 479 0
2019-11-14 09:47:56 GMT 40.120880 -2.616089 37,975 22 478 0
2019-11-14 09:47:52 GMT 40.112202 -2.620863 37,975 22 478 0
2019-11-14 09:47:48 GMT 40.104584 -2.625061 37,975 22 478 0
2019-11-14 09:47:44 GMT 40.095722 -2.629977 37,975 22 479 0
2019-11-14 09:47:41 GMT 40.091537 -2.632263 37,975 22 479 0
2019-11-14 09:47:36 GMT 40.079498 -2.638916 37,975 22 479 -64
2019-11-14 09:47:32 GMT 40.069794 -2.644272 38,000 22 479 -64
2019-11-14 09:47:27 GMT 40.062790 -2.648132 38,000 22 479 0
2019-11-14 09:47:24 GMT 40.049332 -2.655579 38,000 23 478 0
2019-11-14 09:47:21 GMT 40.049332 -2.655579 38,000 23 478 0
2019-11-14 09:47:17 GMT 40.041908 -2.659690 38,000 23 478 0
2019-11-14 09:47:14 GMT 40.028873 -2.666869 38,000 23 478 0
2019-11-14 09:47:07 GMT 40.021637 -2.670837 37,975 23 478 64
2019-11-14 09:47:03 GMT 40.000568 -2.682474 37,975 22 477 64
2019-11-14 09:46:58 GMT 40.000568 -2.682474 37,975 22 477 64
2019-11-14 09:46:54 GMT 39.994583 -2.685791 37,975 22 477 0
2019-11-14 09:46:50 GMT 39.986137 -2.690402 37,975 22 477 0
2019-11-14 09:46:45 GMT 39.976044 -2.695984 37,975 23 478 -64
2019-11-14 09:46:41 GMT 39.965374 -2.701825 37,975 23 478 -64
2019-11-14 09:46:37 GMT 39.959381 -2.705139 37,975 23 478 0
2019-11-14 09:46:34 GMT 39.953293 -2.708496 37,975 23 478 0
2019-11-14 09:46:30 GMT 39.946152 -2.712463 37,975 23 478 0
2019-11-14 09:46:27 GMT 39.938934 -2.716432 38,000 22 479 -64
2019-11-14 09:46:23 GMT 39.931999 -2.720240 38,000 22 479 -64
2019-11-14 09:46:20 GMT 39.925060 -2.724048 38,000 22 478 -128
2019-11-14 09:46:16 GMT 39.918045 -2.727893 38,000 22 478 -64
2019-11-14 09:46:13 GMT 39.911499 -2.731476 38,000 22 478 0
2019-11-14 09:46:10 GMT 39.904358 -2.735417 38,025 22 478 0
2019-11-14 09:46:07 GMT 39.896107 -2.739929 38,025 22 478 0
2019-11-14 09:46:02 GMT 39.889893 -2.743358 38,025 22 478 -64
2019-11-14 09:45:59 GMT 39.883675 -2.746765 38,025 22 479 0
2019-11-14 09:45:56 GMT 39.876846 -2.750523 38,025 22 479 -64
2019-11-14 09:45:53 GMT 39.869705 -2.754404 38,050 22 479 -64
2019-11-14 09:45:50 GMT 39.861610 -2.758850 38,025 22 479 -64
2019-11-14 09:45:46 GMT 39.855789 -2.762046 38,025 22 479 -64
2019-11-14 09:45:42 GMT 39.848530 -2.765991 38,050 22 479 -128
2019-11-14 09:45:39 GMT 39.842331 -2.769450 38,050 22 479 -128
2019-11-14 09:45:36 GMT 39.835262 -2.773315 38,050 22 479 -64
2019-11-14 09:45:33 GMT 39.829056 -2.776735 38,050 22 479 -64
2019-11-14 09:45:29 GMT 39.821045 -2.781093 38,050 22 479 -64
2019-11-14 09:45:24 GMT 39.810425 -2.786945 38,050 22 479 -64
2019-11-14 09:45:21 GMT 39.804211 -2.790344 38,050 22 479 -64
2019-11-14 09:45:18 GMT 39.799393 -2.792975 38,050 22 479 0
2019-11-14 09:45:14 GMT 39.789780 -2.798230 38,050 22 480 0
2019-11-14 09:45:10 GMT 39.782410 -2.802290 38,050 22 480 0
2019-11-14 09:45:06 GMT 39.772278 -2.807861 38,050 22 481 0
2019-11-14 09:45:02 GMT 39.758011 -2.815665 38,050 22 481 64
2019-11-14 09:44:59 GMT 39.758011 -2.815665 38,050 22 481 0
2019-11-14 09:44:55 GMT 39.751877 -2.819008 38,050 22 482 64
2019-11-14 09:44:52 GMT 39.737732 -2.826770 38,050 22 482 64
2019-11-14 09:44:48 GMT 39.737732 -2.826770 38,050 22 481 0
2019-11-14 09:44:45 GMT 39.731552 -2.830174 38,050 22 481 0
2019-11-14 09:44:42 GMT 39.725006 -2.833756 38,025 22 481 0
2019-11-14 09:44:39 GMT 39.718929 -2.837036 38,025 22 482 64
2019-11-14 09:44:35 GMT 39.710403 -2.841697 38,025 22 482 64
2019-11-14 09:44:32 GMT 39.704124 -2.845154 38,025 22 483 64
2019-11-14 09:44:28 GMT 39.695801 -2.849698 38,025 22 483 64
2019-11-14 09:44:25 GMT 39.689137 -2.853333 38,025 22 483 64
2019-11-14 09:44:20 GMT 39.678196 -2.859314 38,025 22 483 0
2019-11-14 09:44:14 GMT 39.668015 -2.864864 38,025 22 482 0
2019-11-14 09:44:11 GMT 39.661423 -2.868447 38,025 22 482 0
2019-11-14 09:44:08 GMT 39.655243 -2.871790 38,025 22 482 0
2019-11-14 09:44:03 GMT 39.643524 -2.878179 38,025 22 482 64
2019-11-14 09:43:57 GMT 39.631989 -2.884449 38,025 22 482 0
2019-11-14 09:43:52 GMT 39.622658 -2.889526 38,025 22 481 0
2019-11-14 09:43:49 GMT 39.615555 -2.893345 38,025 22 481 0
2019-11-14 09:43:46 GMT 39.610840 -2.895913 38,000 22 480 64
2019-11-14 09:43:42 GMT 39.601292 -2.901062 38,000 22 480 64
2019-11-14 09:43:35 GMT 39.580856 -2.912153 38,000 22 480 64
2019-11-14 09:43:32 GMT 39.572891 -2.916512 38,000 22 480 128
2019-11-14 09:43:29 GMT 39.572891 -2.916512 38,000 22 480 64
2019-11-14 09:43:26 GMT 39.562744 -2.921997 37,975 22 480 64
2019-11-14 09:43:23 GMT 39.557739 -2.924752 37,975 22 480 0
2019-11-14 09:43:17 GMT 39.548904 -2.929528 38,000 22 479 -64
2019-11-14 09:43:13 GMT 39.542770 -2.932812 38,000 22 479 -64
2019-11-14 09:43:10 GMT 39.527481 -2.941112 38,000 22 478 -64
2019-11-14 09:43:06 GMT 39.527481 -2.941112 38,000 22 478 -64
2019-11-14 09:43:01 GMT 39.518875 -2.945769 38,025 22 477 0
2019-11-14 09:42:58 GMT 39.510956 -2.950128 38,025 22 477 0
2019-11-14 09:42:53 GMT 39.500748 -2.955621 38,000 22 477 0
2019-11-14 09:42:50 GMT 39.495804 -2.958374 38,000 22 477 0
2019-11-14 09:42:45 GMT 39.484585 -2.964417 38,000 22 477 0
2019-11-14 09:42:40 GMT 39.475754 -2.969234 38,000 22 477 0
2019-11-14 09:42:37 GMT 39.469547 -2.972595 38,000 22 477 0
2019-11-14 09:42:33 GMT 39.460190 -2.977661 38,000 22 478 0
2019-11-14 09:42:30 GMT 39.453964 -2.981057 38,000 22 478 0
2019-11-14 09:42:23 GMT 39.441513 -2.987804 38,000 22 479 0
2019-11-14 09:42:20 GMT 39.434143 -2.991744 38,000 22 479 0
2019-11-14 09:42:17 GMT 39.427414 -2.995387 38,000 22 479 -64
2019-11-14 09:42:13 GMT 39.418900 -3.000000 38,000 22 478 -64
2019-11-14 09:42:10 GMT 39.414616 -3.002319 38,000 22 478 -64
2019-11-14 09:42:06 GMT 39.397671 -3.011475 38,000 22 478 0
2019-11-14 09:42:02 GMT 39.397671 -3.011475 38,000 22 478 -64
2019-11-14 09:41:59 GMT 39.391575 -3.014771 38,000 22 477 -64
2019-11-14 09:41:54 GMT 39.382217 -3.019836 38,025 22 477 0
2019-11-14 09:41:51 GMT 39.372940 -3.024882 38,025 22 477 0
2019-11-14 09:41:45 GMT 39.361542 -3.031032 38,000 22 478 64
2019-11-14 09:41:40 GMT 39.344650 -3.040227 38,000 22 478 64
2019-11-14 09:41:36 GMT 39.336273 -3.044765 38,000 22 478 64
2019-11-14 09:41:32 GMT 39.336273 -3.044765 38,000 22 478 64
2019-11-14 09:41:29 GMT 39.330551 -3.047870 38,000 22 478 64
2019-11-14 09:41:26 GMT 39.323326 -3.051819 38,000 22 478 64
2019-11-14 09:41:22 GMT 39.315262 -3.056170 38,000 22 479 64
2019-11-14 09:41:19 GMT 39.310135 -3.058916 38,000 22 478 64
2019-11-14 09:41:13 GMT 39.297089 -3.065962 37,975 22 477 64
2019-11-14 09:41:10 GMT 39.291183 -3.069126 37,975 22 477 64
2019-11-14 09:41:06 GMT 39.281204 -3.074500 37,975 22 476 128
2019-11-14 09:41:01 GMT 39.273239 -3.078739 37,975 22 476 128
2019-11-14 09:40:58 GMT 39.267883 -3.081665 37,975 22 475 192
2019-11-14 09:40:53 GMT 39.249527 -3.091517 37,950 22 473 64
2019-11-14 09:40:49 GMT 39.249527 -3.091517 37,950 22 470 192
2019-11-14 09:40:45 GMT 39.240372 -3.096436 37,950 22 471 128
2019-11-14 09:40:41 GMT 39.232224 -3.100772 37,925 22 468 256
2019-11-14 09:40:37 GMT 39.225586 -3.104294 37,925 22 468 128
2019-11-14 09:40:33 GMT 39.216614 -3.109131 37,925 22 468 128
2019-11-14 09:40:29 GMT 39.208485 -3.113464 37,900 22 466 128
2019-11-14 09:40:23 GMT 39.196518 -3.119812 37,900 22 464 128
2019-11-14 09:40:19 GMT 39.188000 -3.124390 37,900 22 460 704
2019-11-14 09:40:15 GMT 39.179062 -3.129150 37,875 22 462 192
2019-11-14 09:40:12 GMT 39.175152 -3.131287 37,850 22 461 320
2019-11-14 09:40:09 GMT 39.168732 -3.134746 37,825 22 460 320
2019-11-14 09:40:04 GMT 39.159370 -3.139709 37,825 22 460 256
2019-11-14 09:40:00 GMT 39.151566 -3.143881 37,800 22 460 384
2019-11-14 09:39:57 GMT 39.145889 -3.146986 37,775 22 460 640
2019-11-14 09:39:51 GMT 39.133118 -3.153733 37,700 22 460 640
2019-11-14 09:39:44 GMT 39.119289 -3.161133 37,650 22 459 448
2019-11-14 09:39:40 GMT 39.112106 -3.164958 37,625 22 459 704
2019-11-14 09:39:37 GMT 39.106113 -3.168152 37,575 22 459 1088
2019-11-14 09:39:32 GMT 39.095734 -3.173767 37,450 22 460 1280
2019-11-14 09:39:29 GMT 39.090843 -3.176392 37,400 22 461 1280
2019-11-14 09:39:24 GMT 39.079147 -3.182751 37,275 22 461 1024
2019-11-14 09:39:20 GMT 39.071339 -3.186829 37,225 21 459 576
2019-11-14 09:39:16 GMT 39.065193 -3.190002 37,175 21 458 512
2019-11-14 09:39:12 GMT 39.055511 -3.194763 37,150 20 457 384
2019-11-14 09:39:09 GMT 39.045731 -3.199470 37,125 20 456 192
2019-11-14 09:39:01 GMT 39.035168 -3.204590 37,125 20 454 256
2019-11-14 09:38:58 GMT 39.028465 -3.207825 37,100 20 452 320
2019-11-14 09:38:51 GMT 39.008633 -3.217102 37,050 17 444 64
2019-11-14 09:38:47 GMT 39.008633 -3.217102 37,000 18 446 192
2019-11-14 09:38:39 GMT 38.987000 -3.226040 37,000 16 439 256
2019-11-14 09:38:36 GMT 38.987000 -3.226040 37,000 16 439 256
2019-11-14 09:38:30 GMT 38.975464 -3.230279 36,975 15 437 448
2019-11-14 09:38:27 GMT 38.965805 -3.233826 36,950 15 437 1024
2019-11-14 09:38:21 GMT 38.954819 -3.237802 36,850 15 437 1152
2019-11-14 09:38:17 GMT 38.948116 -3.240234 36,825 15 437 1152
2019-11-14 09:38:09 GMT 38.928131 -3.247535 36,600 15 439 1344
2019-11-14 09:37:59 GMT 38.913620 -3.252789 36,450 15 439 960
2019-11-14 09:37:49 GMT 38.895142 -3.259521 36,300 15 439 1088
2019-11-14 09:37:46 GMT 38.887550 -3.262329 36,275 15 439 1152
2019-11-14 09:37:41 GMT 38.879196 -3.265387 36,100 16 442 1984
2019-11-14 09:37:38 GMT 38.872471 -3.267822 36,000 16 442 2112
2019-11-14 09:37:30 GMT 38.855476 -3.274109 35,625 16 448 2560
2019-11-14 09:37:27 GMT 38.837879 -3.280579 35,300 16 452 1920
2019-11-14 09:37:18 GMT 38.833740 -3.282106 35,200 15 453 1600
2019-11-14 09:37:15 GMT 38.826988 -3.284546 35,050 15 453 1536
2019-11-14 09:37:09 GMT 38.814465 -3.289124 35,000 15 454 1216
2019-11-14 09:37:06 GMT 38.808830 -3.291199 34,950 15 454 1152
2019-11-14 09:36:58 GMT 38.793655 -3.296692 34,800 15 454 1216
2019-11-14 09:36:55 GMT 38.785789 -3.299561 34,725 15 454 1216
2019-11-14 09:36:50 GMT 38.775970 -3.303123 34,650 15 454 896
2019-11-14 09:36:47 GMT 38.771118 -3.304914 34,625 15 453 704
2019-11-14 09:36:44 GMT 38.763954 -3.307495 34,575 15 452 704
2019-11-14 09:36:39 GMT 38.752396 -3.311661 34,400 15 451 1216
2019-11-14 09:36:36 GMT 38.747662 -3.313416 34,475 15 451 1216
2019-11-14 09:36:30 GMT 38.735603 -3.317749 34,350 15 451 1216
2019-11-14 09:36:26 GMT 38.725433 -3.321394 34,250 15 451 1088
2019-11-14 09:36:20 GMT 38.714813 -3.325215 34,150 15 450 1024
2019-11-14 09:36:17 GMT 38.709824 -3.327066 34,125 15 450 1088
2019-11-14 09:36:08 GMT 38.691471 -3.333679 33,950 15 450 1472
2019-11-14 09:36:05 GMT 38.685467 -3.335876 33,850 15 450 1472
2019-11-14 09:35:57 GMT 38.665031 -3.343262 33,600 15 451 1472
2019-11-14 09:35:54 GMT 38.650864 -3.348322 33,425 15 451 1536
2019-11-14 09:35:48 GMT 38.650864 -3.348322 33,425 15 451 1536
2019-11-14 09:35:44 GMT 38.644966 -3.350464 33,350 15 451 1536
2019-11-14 09:35:37 GMT 38.629326 -3.356140 33,175 15 451 1664
2019-11-14 09:35:33 GMT 38.622757 -3.358473 33,100 15 452 1728
2019-11-14 09:35:27 GMT 38.610672 -3.362891 32,825 15 453 1728
2019-11-14 09:35:24 GMT 38.604515 -3.365112 32,775 15 454 1600
2019-11-14 09:35:17 GMT 38.590485 -3.370176 32,600 15 454 1536
2019-11-14 09:35:14 GMT 38.582497 -3.373047 32,500 15 454 1472
2019-11-14 09:35:04 GMT 38.560474 -3.380981 32,250 15 454 1536
2019-11-14 09:34:55 GMT 38.545395 -3.386416 32,025 15 454 1216
2019-11-14 09:34:52 GMT 38.524750 -3.393820 31,875 15 454 1408
2019-11-14 09:34:45 GMT 38.524750 -3.393820 31,825 15 454 1408
2019-11-14 09:34:42 GMT 38.518578 -3.396057 31,775 15 454 1472
2019-11-14 09:34:34 GMT 38.503448 -3.401550 31,475 15 455 1664
2019-11-14 09:34:31 GMT 38.496140 -3.404175 31,475 15 455 1664
2019-11-14 09:34:20 GMT 38.464855 -3.415466 31,025 15 457 1664
2019-11-14 09:34:13 GMT 38.459885 -3.417285 30,950 15 457 1664
2019-11-14 09:34:02 GMT 38.438370 -3.425049 30,700 15 457 1408
2019-11-14 09:33:55 GMT 38.422726 -3.430664 30,525 15 457 1152
2019-11-14 09:33:50 GMT 38.412533 -3.434326 30,475 15 457 1152
2019-11-14 09:33:44 GMT 38.400467 -3.438604 30,300 15 453 1280
2019-11-14 09:33:33 GMT 38.379295 -3.446184 30,025 15 453 1280
2019-11-14 09:33:23 GMT 38.357803 -3.453915 29,925 15 449 832
2019-11-14 09:33:15 GMT 38.341553 -3.459758 29,800 15 448 960
2019-11-14 09:33:12 GMT 38.336380 -3.461570 29,775 15 447 1088
2019-11-14 09:33:02 GMT 38.315937 -3.468873 29,525 15 446 1472
2019-11-14 09:32:49 GMT 38.280441 -3.481614 29,100 15 445 1536
2019-11-14 09:32:41 GMT 38.274490 -3.483718 29,025 15 444 1536
2019-11-14 09:32:34 GMT 38.259331 -3.489174 28,725 15 443 1280
2019-11-14 09:32:31 GMT 38.255604 -3.490488 28,800 15 443 1280
2019-11-14 09:32:24 GMT 38.240295 -3.495990 28,625 15 442 1152
2019-11-14 09:32:21 GMT 38.236313 -3.497392 28,575 15 441 1152
2019-11-14 09:32:11 GMT 38.216595 -3.504460 28,375 15 439 1536
2019-11-14 09:32:02 GMT 38.197311 -3.511359 28,100 15 439 1664
2019-11-14 09:31:54 GMT 38.180374 -3.517416 27,875 15 438 1600
2019-11-14 09:31:49 GMT 38.173645 -3.519833 27,775 15 438 1600
2019-11-14 09:31:40 GMT 38.155422 -3.526313 27,275 15 436 1152
2019-11-14 09:31:29 GMT 38.133362 -3.534208 27,300 15 433 896
2019-11-14 09:31:20 GMT 38.117252 -3.539926 27,200 15 428 832
2019-11-14 09:31:10 GMT 38.097885 -3.546772 27,050 15 424 1216
2019-11-14 09:31:00 GMT 38.078102 -3.553838 26,800 15 423 1536
2019-11-14 09:30:47 GMT 38.044445 -3.565840 26,350 15 420 1792
2019-11-14 09:30:39 GMT 38.039742 -3.567512 26,275 15 420 1792
2019-11-14 09:30:30 GMT 38.021301 -3.574004 26,000 15 419 1472
2019-11-14 09:30:22 GMT 38.001938 -3.580900 25,750 15 417 1536
2019-11-14 09:30:09 GMT 37.983536 -3.587387 25,500 15 415 1472
2019-11-14 09:29:59 GMT 37.964046 -3.594261 25,250 15 412 1472
2019-11-14 09:29:46 GMT 37.930717 -3.606083 24,725 15 409 1728
2019-11-14 09:29:38 GMT 37.926773 -3.607489 24,675 15 409 1728
2019-11-14 09:29:30 GMT 37.910839 -3.613129 24,400 15 408 1920
2019-11-14 09:29:27 GMT 37.906952 -3.614502 24,325 15 407 1920
2019-11-14 09:29:20 GMT 37.891342 -3.619937 24,025 12 402 1984
2019-11-14 09:29:15 GMT 37.875973 -3.624055 23,800 8 392 1536
2019-11-14 09:29:08 GMT 37.871384 -3.624904 23,725 6 390 1344
2019-11-14 09:28:57 GMT 37.851654 -3.627008 23,500 1 377 1344
2019-11-14 09:28:44 GMT 37.820061 -3.627459 22,900 0 373 2496
2019-11-14 09:28:37 GMT 37.817413 -3.627475 22,850 0 373 2688
2019-11-14 09:28:27 GMT 37.800369 -3.627638 22,400 0 376 2624
2019-11-14 09:28:15 GMT 37.769226 -3.627877 21,800 0 373 1472
2019-11-14 09:28:07 GMT 37.764862 -3.627884 21,725 0 372 1472
2019-11-14 09:27:56 GMT 37.746929 -3.628056 21,425 0 368 1984
2019-11-14 09:27:44 GMT 37.717319 -3.628235 20,800 0 366 2240
2019-11-14 09:27:36 GMT 37.712311 -3.628293 20,675 0 366 2304
2019-11-14 09:27:29 GMT 37.691578 -3.628474 20,225 0 364 2304
2019-11-14 09:27:14 GMT 37.664978 -3.628702 19,600 0 361 2304
2019-11-14 09:27:05 GMT 37.660900 -3.628713 19,525 0 360 2432
2019-11-14 09:26:54 GMT 37.642048 -3.628832 19,050 0 359 2368
2019-11-14 09:26:43 GMT 37.614853 -3.628995 18,400 0 355 2304
2019-11-14 09:26:35 GMT 37.610344 -3.629071 18,300 0 354 2368
2019-11-14 09:26:24 GMT 37.593063 -3.629170 17,850 0 352 2624
2019-11-14 09:26:13 GMT 37.565281 -3.629489 17,000 0 352 2944
2019-11-14 09:26:04 GMT 37.560066 -3.629548 16,850 0 352 2752
2019-11-14 09:25:54 GMT 37.543076 -3.629696 16,400 0 349 2560
2019-11-14 09:25:43 GMT 37.526779 -3.629813 16,000 0 344 1984
2019-11-14 09:25:33 GMT 37.510941 -3.629871 15,675 0 338 2176
2019-11-14 09:25:23 GMT 37.495010 -3.629930 15,250 0 335 2560

Making use of Plane Finder data

You are free to use the raw flight data, aircraft information and images provided in this report for your own purposes provided the data is correctly attributed to Plane Finder. We ask that you please credit Plane Finder and link to planefinder.net in close proximity to the content.

Optionally one of the following logos (no smaller then 150x24px) can be used and must link to planefinder.net

Embedding the Plane Finder map

You are welcome to embed the Plane Finder playback map on your website to offer visitors a more interactive experience. We suggest using the following HTML code:

<iframe src="//planefinder.net/data/report/U22512-OE-IZL-7700-squawk-2019-11-14/map" width="800" height="600" seamless="seamless"></iframe>

Where our data comes from

Plane Finder has a global network of data feeds and antenna radars that receive data broadcast directly from aircraft. The primary technologies used are ADS-B and MLAT. We also show feeds from the FAA and a FLARM glider feed.

Click here to find out more about the Plane Finder network.

How we collect our data